Time,TemperatureF,DewpointF,PressureIn,WindDirection,WindDirectionDegrees,WindSpeedMPH,WindSpeedGustMPH,Humidity,HourlyPrecipIn,Conditions,Clouds,dailyrainin,SoftwareType,DateUTC
2013-11-10 00:01:00,44.1,9.5,29.98,NE,45,1.6,1.6,24,0.00,,,0.00,meteobridge,2013-11-10 08:01:00,
2013-11-10 00:02:00,43.9,9.3,29.98,NE,45,0.7,1.6,24,0.00,,,0.00,meteobridge,2013-11-10 08:02:00,
2013-11-10 00:03:00,43.9,9.3,29.98,NE,45,0.7,0.7,24,0.00,,,0.00,meteobridge,2013-11-10 08:03:00,
2013-11-10 00:04:00,43.7,9.3,29.98,NE,45,0.0,0.7,24,0.00,,,0.00,meteobridge,2013-11-10 08:04:00,
2013-11-10 00:05:00,43.7,9.3,29.98,NE,45,0.0,0.7,24,0.00,,,0.00,meteobridge,2013-11-10 08:05:00,
2013-11-10 00:07:00,43.5,9.1,29.98,West,270,1.6,1.6,24,0.00,,,0.00,meteobridge,2013-11-10 08:07:00,
2013-11-10 00:08:00,43.7,9.3,29.98,West,270,1.6,1.6,24,0.00,,,0.00,meteobridge,2013-11-10 08:08:00,
2013-11-10 00:09:00,43.7,9.3,29.98,NW,315,2.2,2.2,24,0.00,,,0.00,meteobridge,2013-11-10 08:09:00,
2013-11-10 00:10:00,43.7,9.3,29.98,NW,315,2.2,2.2,24,0.00,,,0.00,meteobridge,2013-11-10 08:10:00,
2013-11-10 00:12:00,43.5,9.1,29.98,West,270,3.1,3.1,24,0.00,,,0.00,meteobridge,2013-11-10 08:12:00,
2013-11-10 00:14:00,43.5,9.1,29.98,NW,315,3.1,3.1,24,0.00,,,0.00,meteobridge,2013-11-10 08:14:00,
2013-11-10 00:15:00,43.5,9.1,29.98,West,270,2.2,3.1,24,0.00,,,0.00,meteobridge,2013-11-10 08:15:00,
2013-11-10 00:16:00,43.3,8.1,29.98,West,270,2.2,3.1,23,0.00,,,0.00,meteobridge,2013-11-10 08:16:00,
2013-11-10 00:17:00,43.3,9.0,29.98,West,270,3.1,3.1,24,0.00,,,0.00,meteobridge,2013-11-10 08:17:00,
2013-11-10 00:18:00,43.3,8.1,29.98,West,270,2.2,3.1,23,0.00,,,0.00,meteobridge,2013-11-10 08:18:00,
2013-11-10 00:20:00,43.0,7.7,29.98,West,270,1.6,1.6,23,0.00,,,0.00,meteobridge,2013-11-10 08:20:00,
2013-11-10 00:21:00,43.0,6.8,29.98,West,270,1.6,1.6,22,0.00,,,0.00,meteobridge,2013-11-10 08:21:00,
2013-11-10 00:22:00,42.6,6.4,29.98,West,270,3.1,3.1,22,0.00,,,0.00,meteobridge,2013-11-10 08:22:00,
2013-11-10 00:24:00,42.3,6.1,29.98,West,270,3.1,3.1,22,0.00,,,0.00,meteobridge,2013-11-10 08:24:00,
2013-11-10 00:26:00,42.1,5.9,29.98,West,270,1.6,2.2,22,0.00,,,0.00,meteobridge,2013-11-10 08:26:00,
2013-11-10 00:27:00,42.1,5.9,29.98,West,270,1.6,1.6,22,0.00,,,0.00,meteobridge,2013-11-10 08:27:00,
2013-11-10 00:28:00,41.9,5.7,29.98,West,270,2.2,2.2,22,0.00,,,0.00,meteobridge,2013-11-10 08:28:00,
2013-11-10 00:30:00,41.9,4.8,29.98,NW,315,1.6,2.2,21,0.00,,,0.00,meteobridge,2013-11-10 08:30:00,
2013-11-10 00:32:00,41.7,5.7,29.98,NW,315,2.2,2.2,22,0.00,,,0.00,meteobridge,2013-11-10 08:32:00,
2013-11-10 00:33:00,41.7,5.7,29.97,NW,315,1.6,2.2,22,0.00,,,0.00,meteobridge,2013-11-10 08:33:00,
2013-11-10 00:34:00,41.7,5.7,29.97,NW,315,0.7,2.2,22,0.00,,,0.00,meteobridge,2013-11-10 08:34:00,
2013-11-10 00:35:00,41.7,5.7,29.98,NW,315,1.6,1.6,22,0.00,,,0.00,meteobridge,2013-11-10 08:35:00,
2013-11-10 00:37:00,41.5,5.5,29.98,West,270,3.1,3.1,22,0.00,,,0.00,meteobridge,2013-11-10 08:37:00,
2013-11-10 00:38:00,41.5,7.3,29.98,West,270,3.8,3.8,24,0.00,,,0.00,meteobridge,2013-11-10 08:38:00,
2013-11-10 00:39:00,41.4,8.2,29.98,West,270,3.8,3.8,25,0.00,,,0.00,meteobridge,2013-11-10 08:39:00,
2013-11-10 00:42:00,41.5,7.3,29.98,SW,225,4.5,4.5,24,0.00,,,0.00,meteobridge,2013-11-10 08:42:00,
2013-11-10 00:43:00,41.5,7.3,29.98,SW,225,3.8,4.5,24,0.00,,,0.00,meteobridge,2013-11-10 08:43:00,
2013-11-10 00:44:00,41.5,7.3,29.98,SW,225,4.5,4.5,24,0.00,,,0.00,meteobridge,2013-11-10 08:44:00,
2013-11-10 00:45:00,41.9,7.7,29.99,SW,225,5.4,5.4,24,0.00,,,0.00,meteobridge,2013-11-10 08:45:00,
2013-11-10 00:46:00,41.9,7.7,29.99,SW,225,5.4,5.4,24,0.00,,,0.00,meteobridge,2013-11-10 08:46:00,
2013-11-10 00:47:00,41.9,7.7,29.98,SW,225,5.4,5.4,24,0.00,,,0.00,meteobridge,2013-11-10 08:47:00,
2013-11-10 00:48:00,42.1,7.9,29.99,SW,225,5.4,5.4,24,0.00,,,0.00,meteobridge,2013-11-10 08:48:00,
2013-11-10 00:50:00,42.1,7.9,29.98,SW,225,4.5,4.5,24,0.00,,,0.00,meteobridge,2013-11-10 08:50:00,
2013-11-10 00:52:00,42.3,9.0,29.98,SW,225,5.4,5.4,25,0.00,,,0.00,meteobridge,2013-11-10 08:52:00,
2013-11-10 00:53:00,42.1,8.8,29.99,SW,225,4.5,5.4,25,0.00,,,0.00,meteobridge,2013-11-10 08:53:00,
2013-11-10 00:54:00,42.1,9.7,29.98,SW,225,3.8,4.5,26,0.00,,,0.00,meteobridge,2013-11-10 08:54:00,
2013-11-10 00:55:00,41.9,9.5,29.98,SW,225,3.8,4.5,26,0.00,,,0.00,meteobridge,2013-11-10 08:55:00,
2013-11-10 00:56:00,41.9,10.4,29.98,SW,225,3.8,3.8,27,0.00,,,0.00,meteobridge,2013-11-10 08:56:00,
2013-11-10 00:58:00,41.9,11.1,29.98,SW,225,4.5,4.5,28,0.00,,,0.00,meteobridge,2013-11-10 08:58:00,
2013-11-10 01:00:00,41.7,10.9,29.98,SW,225,4.5,4.5,28,0.00,,,0.00,meteobridge,2013-11-10 09:00:00,
2013-11-10 01:01:00,41.7,10.9,29.98,SW,225,3.8,4.5,28,0.00,,,0.00,meteobridge,2013-11-10 09:01:00,
2013-11-10 01:02:00,41.7,10.9,29.98,SW,225,3.8,4.5,28,0.00,,,0.00,meteobridge,2013-11-10 09:02:00,
2013-11-10 01:04:00,41.7,10.9,29.98,SW,225,4.5,4.5,28,0.00,,,0.00,meteobridge,2013-11-10 09:04:00,
2013-11-10 01:05:00,41.7,10.9,29.98,SW,225,3.8,4.5,28,0.00,,,0.00,meteobridge,2013-11-10 09:05:00,
2013-11-10 01:06:00,41.5,10.8,29.99,SW,225,4.5,4.5,28,0.00,,,0.00,meteobridge,2013-11-10 09:06:00,
2013-11-10 01:07:00,41.5,11.7,29.99,SW,225,4.5,4.5,29,0.00,,,0.00,meteobridge,2013-11-10 09:07:00,
2013-11-10 01:08:00,41.5,11.7,29.99,WSW,248,3.8,4.5,29,0.00,,,0.00,meteobridge,2013-11-10 09:08:00,
2013-11-10 01:11:00,41.4,11.5,29.99,SW,225,3.8,3.8,29,0.00,,,0.00,meteobridge,2013-11-10 09:11:00,
2013-11-10 01:12:00,41.4,11.5,29.98,WSW,248,3.1,3.8,29,0.00,,,0.00,meteobridge,2013-11-10 09:12:00,
2013-11-10 01:13:00,41.4,11.5,29.98,WSW,248,3.1,3.8,29,0.00,,,0.00,meteobridge,2013-11-10 09:13:00,
2013-11-10 01:15:00,41.4,11.5,29.98,West,270,4.5,4.5,29,0.00,,,0.00,meteobridge,2013-11-10 09:15:00,
2013-11-10 01:17:00,41.4,11.5,29.98,West,270,3.8,4.5,29,0.00,,,0.00,meteobridge,2013-11-10 09:17:00,
2013-11-10 01:18:00,41.5,10.8,29.98,West,270,3.1,3.8,28,0.00,,,0.00,meteobridge,2013-11-10 09:18:00,
2013-11-10 01:19:00,41.5,10.8,29.98,West,270,3.1,3.1,28,0.00,,,0.00,meteobridge,2013-11-10 09:19:00,
2013-11-10 01:23:00,41.7,10.9,29.99,West,270,2.2,3.8,28,0.00,,,0.00,meteobridge,2013-11-10 09:23:00,
2013-11-10 01:24:00,41.7,10.9,29.98,NW,315,3.1,3.1,28,0.00,,,0.00,meteobridge,2013-11-10 09:24:00,
2013-11-10 01:25:00,41.9,10.4,29.98,NW,315,3.1,3.1,27,0.00,,,0.00,meteobridge,2013-11-10 09:25:00,
2013-11-10 01:26:00,41.9,10.4,29.98,NW,315,3.8,3.8,27,0.00,,,0.00,meteobridge,2013-11-10 09:26:00,
2013-11-10 01:29:00,41.7,10.2,29.98,West,270,3.1,3.8,27,0.00,,,0.00,meteobridge,2013-11-10 09:29:00,
2013-11-10 01:30:00,41.7,10.2,29.98,West,270,3.1,3.8,27,0.00,,,0.00,meteobridge,2013-11-10 09:30:00,
2013-11-10 01:31:00,41.5,10.0,29.98,West,270,3.8,3.8,27,0.00,,,0.00,meteobridge,2013-11-10 09:31:00,
2013-11-10 01:34:00,41.2,9.7,29.98,West,270,3.8,3.8,27,0.00,,,0.00,meteobridge,2013-11-10 09:34:00,
2013-11-10 01:35:00,41.0,9.5,29.98,West,270,3.8,3.8,27,0.00,,,0.00,meteobridge,2013-11-10 09:35:00,
2013-11-10 01:36:00,41.0,9.5,29.98,West,270,3.8,3.8,27,0.00,,,0.00,meteobridge,2013-11-10 09:36:00,
2013-11-10 01:37:00,40.6,10.0,29.98,West,270,3.8,3.8,28,0.00,,,0.00,meteobridge,2013-11-10 09:37:00,
2013-11-10 01:40:00,40.3,9.7,29.98,West,270,3.8,3.8,28,0.00,,,0.00,meteobridge,2013-11-10 09:40:00,
2013-11-10 01:42:00,40.1,8.8,29.98,West,270,3.1,3.8,27,0.00,,,0.00,meteobridge,2013-11-10 09:42:00,
2013-11-10 01:43:00,39.9,8.6,29.98,West,270,3.8,3.8,27,0.00,,,0.00,meteobridge,2013-11-10 09:43:00,
2013-11-10 01:46:00,39.7,8.4,29.98,West,270,2.2,3.1,27,0.00,,,0.00,meteobridge,2013-11-10 09:46:00,
2013-11-10 01:47:00,39.6,8.2,29.98,West,270,2.2,2.2,27,0.00,,,0.00,meteobridge,2013-11-10 09:47:00,
2013-11-10 01:48:00,39.6,8.2,29.98,West,270,1.6,2.2,27,0.00,,,0.00,meteobridge,2013-11-10 09:48:00,
2013-11-10 01:49:00,39.6,8.2,29.98,West,270,2.2,2.2,27,0.00,,,0.00,meteobridge,2013-11-10 09:49:00,
2013-11-10 01:51:00,39.6,9.1,29.98,NW,315,2.2,2.2,28,0.00,,,0.00,meteobridge,2013-11-10 09:51:00,
2013-11-10 01:52:00,39.6,9.1,29.98,NW,315,2.2,2.2,28,0.00,,,0.00,meteobridge,2013-11-10 09:52:00,
2013-11-10 01:53:00,39.7,9.3,29.98,NW,315,3.1,3.1,28,0.00,,,0.00,meteobridge,2013-11-10 09:53:00,
2013-11-10 01:54:00,39.7,9.3,29.98,NW,315,3.1,3.1,28,0.00,,,0.00,meteobridge,2013-11-10 09:54:00,
2013-11-10 01:55:00,39.7,8.4,29.98,NW,315,4.5,4.5,27,0.00,,,0.00,meteobridge,2013-11-10 09:55:00,
2013-11-10 01:57:00,40.1,8.8,29.98,NW,315,4.5,4.5,27,0.00,,,0.00,meteobridge,2013-11-10 09:57:00,
2013-11-10 01:58:00,40.1,7.9,29.98,West,270,3.1,4.5,26,0.00,,,0.00,meteobridge,2013-11-10 09:58:00,
2013-11-10 01:59:00,40.1,7.2,29.98,West,270,4.5,4.5,25,0.00,,,0.00,meteobridge,2013-11-10 09:59:00,
2013-11-10 02:01:00,39.6,6.6,29.98,West,270,4.5,5.4,25,0.00,,,0.00,meteobridge,2013-11-10 10:01:00,
2013-11-10 02:03:00,39.4,6.4,29.98,West,270,4.5,4.5,25,0.00,,,0.00,meteobridge,2013-11-10 10:03:00,
2013-11-10 02:04:00,39.2,5.4,29.98,West,270,5.4,5.4,24,0.00,,,0.00,meteobridge,2013-11-10 10:04:00,
2013-11-10 02:07:00,38.7,5.9,29.98,West,270,4.5,4.5,25,0.00,,,0.00,meteobridge,2013-11-10 10:07:00,
2013-11-10 02:09:00,38.7,5.9,29.98,West,270,3.8,4.5,25,0.00,,,0.00,meteobridge,2013-11-10 10:09:00,
2013-11-10 02:10:00,38.8,6.1,29.98,West,270,3.1,3.8,25,0.00,,,0.00,meteobridge,2013-11-10 10:10:00,
2013-11-10 02:11:00,38.8,6.8,29.98,West,270,3.8,3.8,26,0.00,,,0.00,meteobridge,2013-11-10 10:11:00,
2013-11-10 02:13:00,39.0,7.9,29.98,West,270,4.5,4.5,27,0.00,,,0.00,meteobridge,2013-11-10 10:13:00,
2013-11-10 02:14:00,39.0,7.9,29.98,West,270,5.4,5.4,27,0.00,,,0.00,meteobridge,2013-11-10 10:14:00,
2013-11-10 02:15:00,39.0,7.9,29.98,West,270,5.4,5.4,27,0.00,,,0.00,meteobridge,2013-11-10 10:15:00,
2013-11-10 02:16:00,39.0,7.9,29.98,West,270,4.5,5.4,27,0.00,,,0.00,meteobridge,2013-11-10 10:16:00,
2013-11-10 02:18:00,39.0,7.9,29.98,West,270,3.1,4.5,27,0.00,,,0.00,meteobridge,2013-11-10 10:18:00,
2013-11-10 02:19:00,39.0,7.9,29.98,West,270,3.8,3.8,27,0.00,,,0.00,meteobridge,2013-11-10 10:19:00,
2013-11-10 02:20:00,39.0,7.9,29.98,West,270,3.1,3.8,27,0.00,,,0.00,meteobridge,2013-11-10 10:20:00,
2013-11-10 02:21:00,39.0,7.9,29.98,West,270,2.2,3.8,27,0.00,,,0.00,meteobridge,2013-11-10 10:21:00,
2013-11-10 02:22:00,39.0,7.0,29.98,West,270,3.1,3.1,26,0.00,,,0.00,meteobridge,2013-11-10 10:22:00,
2013-11-10 02:24:00,39.0,7.9,29.98,West,270,3.8,3.8,27,0.00,,,0.00,meteobridge,2013-11-10 10:24:00,
2013-11-10 02:25:00,39.0,8.6,29.98,West,270,4.5,4.5,28,0.00,,,0.00,meteobridge,2013-11-10 10:25:00,
2013-11-10 02:26:00,39.0,8.6,29.98,West,270,5.4,5.4,28,0.00,,,0.00,meteobridge,2013-11-10 10:26:00,
2013-11-10 02:28:00,39.2,8.8,29.98,West,270,4.5,5.4,28,0.00,,,0.00,meteobridge,2013-11-10 10:28:00,
2013-11-10 02:29:00,39.2,8.8,29.99,West,270,5.4,5.4,28,0.00,,,0.00,meteobridge,2013-11-10 10:29:00,
2013-11-10 02:32:00,39.0,8.6,29.99,West,270,5.4,6.0,28,0.00,,,0.00,meteobridge,2013-11-10 10:32:00,
2013-11-10 02:33:00,39.0,8.6,29.98,West,270,5.4,5.4,28,0.00,,,0.00,meteobridge,2013-11-10 10:33:00,
2013-11-10 02:34:00,39.0,8.6,29.99,West,270,4.5,5.4,28,0.00,,,0.00,meteobridge,2013-11-10 10:34:00,
2013-11-10 02:35:00,38.8,8.4,29.98,West,270,4.5,5.4,28,0.00,,,0.00,meteobridge,2013-11-10 10:35:00,
2013-11-10 02:36:00,38.8,8.4,29.98,WNW,293,3.8,4.5,28,0.00,,,0.00,meteobridge,2013-11-10 10:36:00,
2013-11-10 02:38:00,39.4,8.2,29.99,NW,315,3.1,3.8,27,0.00,,,0.00,meteobridge,2013-11-10 10:38:00,
2013-11-10 02:41:00,39.7,8.4,29.98,NW,315,2.2,3.1,27,0.00,,,0.00,meteobridge,2013-11-10 10:41:00,
2013-11-10 02:43:00,39.6,8.2,29.98,West,270,3.8,4.5,27,0.00,,,0.00,meteobridge,2013-11-10 10:43:00,
2013-11-10 02:44:00,39.6,8.2,29.98,West,270,3.8,4.5,27,0.00,,,0.00,meteobridge,2013-11-10 10:44:00,
2013-11-10 02:45:00,39.7,8.4,29.98,NW,315,3.1,3.8,27,0.00,,,0.00,meteobridge,2013-11-10 10:45:00,
2013-11-10 02:46:00,39.7,8.4,29.98,NW,315,3.1,3.8,27,0.00,,,0.00,meteobridge,2013-11-10 10:46:00,
2013-11-10 02:47:00,39.6,8.2,29.98,NW,315,2.2,3.1,27,0.00,,,0.00,meteobridge,2013-11-10 10:47:00,
2013-11-10 02:50:00,39.4,8.2,29.98,NW,315,3.1,3.8,27,0.00,,,0.00,meteobridge,2013-11-10 10:50:00,
2013-11-10 02:51:00,39.2,8.8,29.98,NW,315,3.1,3.8,28,0.00,,,0.00,meteobridge,2013-11-10 10:51:00,
2013-11-10 02:52:00,39.2,8.8,29.98,NW,315,3.1,3.1,28,0.00,,,0.00,meteobridge,2013-11-10 10:52:00,
2013-11-10 02:53:00,39.4,9.0,29.98,West,270,3.1,3.1,28,0.00,,,0.00,meteobridge,2013-11-10 10:53:00,
2013-11-10 02:54:00,39.4,9.0,29.98,West,270,1.6,3.1,28,0.00,,,0.00,meteobridge,2013-11-10 10:54:00,
2013-11-10 02:56:00,39.2,8.8,29.98,NW,315,3.8,3.8,28,0.00,,,0.00,meteobridge,2013-11-10 10:56:00,
2013-11-10 02:57:00,39.4,9.0,29.98,NW,315,3.1,3.8,28,0.00,,,0.00,meteobridge,2013-11-10 10:57:00,
2013-11-10 02:58:00,39.4,9.0,29.98,NW,315,3.1,3.8,28,0.00,,,0.00,meteobridge,2013-11-10 10:58:00,
2013-11-10 02:59:00,39.4,9.0,29.99,West,270,2.2,3.1,28,0.00,,,0.00,meteobridge,2013-11-10 10:59:00,
2013-11-10 03:02:00,39.2,8.8,29.99,NW,315,1.6,2.2,28,0.00,,,0.00,meteobridge,2013-11-10 11:02:00,
2013-11-10 03:03:00,39.2,8.8,29.98,NW,315,3.1,3.1,28,0.00,,,0.00,meteobridge,2013-11-10 11:03:00,
2013-11-10 03:04:00,39.2,8.8,29.98,NW,315,3.1,3.1,28,0.00,,,0.00,meteobridge,2013-11-10 11:04:00,
2013-11-10 03:05:00,39.2,8.8,29.98,NW,315,1.6,3.1,28,0.00,,,0.00,meteobridge,2013-11-10 11:05:00,
2013-11-10 03:06:00,39.0,8.6,29.98,North,0,1.6,3.1,28,0.00,,,0.00,meteobridge,2013-11-10 11:06:00,
2013-11-10 03:09:00,38.7,8.4,29.98,West,270,3.1,3.1,28,0.00,,,0.00,meteobridge,2013-11-10 11:09:00,
2013-11-10 03:10:00,38.3,8.1,29.98,West,270,6.9,6.9,28,0.00,,,0.00,meteobridge,2013-11-10 11:10:00,
2013-11-10 03:13:00,37.8,7.5,29.98,West,270,5.4,7.6,28,0.00,,,0.00,meteobridge,2013-11-10 11:13:00,
2013-11-10 03:14:00,37.2,7.2,29.98,West,270,5.4,5.4,28,0.00,,,0.00,meteobridge,2013-11-10 11:14:00,
2013-11-10 03:15:00,37.0,7.0,29.98,West,270,4.5,5.4,28,0.00,,,0.00,meteobridge,2013-11-10 11:15:00,
2013-11-10 03:16:00,37.0,7.0,29.98,West,270,5.4,5.4,28,0.00,,,0.00,meteobridge,2013-11-10 11:16:00,
2013-11-10 03:17:00,36.9,6.8,29.98,West,270,4.5,6.0,28,0.00,,,0.00,meteobridge,2013-11-10 11:17:00,
2013-11-10 03:20:00,36.7,6.6,29.98,West,270,6.0,6.0,28,0.00,,,0.00,meteobridge,2013-11-10 11:20:00,
2013-11-10 03:21:00,36.5,6.4,29.99,West,270,6.0,6.0,28,0.00,,,0.00,meteobridge,2013-11-10 11:21:00,
2013-11-10 03:22:00,36.7,6.6,29.99,West,270,6.0,6.0,28,0.00,,,0.00,meteobridge,2013-11-10 11:22:00,
2013-11-10 03:23:00,36.5,6.4,29.99,West,270,6.0,6.0,28,0.00,,,0.00,meteobridge,2013-11-10 11:23:00,
2013-11-10 03:26:00,36.5,6.4,29.98,West,270,4.5,5.4,28,0.00,,,0.00,meteobridge,2013-11-10 11:26:00,
2013-11-10 03:27:00,36.5,6.4,29.98,West,270,4.5,5.4,28,0.00,,,0.00,meteobridge,2013-11-10 11:27:00,
2013-11-10 03:28:00,36.3,6.3,29.99,West,270,4.5,5.4,28,0.00,,,0.00,meteobridge,2013-11-10 11:28:00,
2013-11-10 03:30:00,36.5,7.2,29.98,WSW,248,5.4,5.4,29,0.00,,,0.00,meteobridge,2013-11-10 11:30:00,
2013-11-10 03:31:00,36.7,6.6,29.99,West,270,5.4,5.4,28,0.00,,,0.00,meteobridge,2013-11-10 11:31:00,
2013-11-10 03:33:00,36.9,6.8,29.98,West,270,5.4,5.4,28,0.00,,,0.00,meteobridge,2013-11-10 11:33:00,
2013-11-10 03:34:00,36.9,6.8,29.98,West,270,5.4,5.4,28,0.00,,,0.00,meteobridge,2013-11-10 11:34:00,
2013-11-10 03:36:00,37.0,7.0,29.98,West,270,4.5,5.4,28,0.00,,,0.00,meteobridge,2013-11-10 11:36:00,
2013-11-10 03:38:00,37.0,7.0,29.99,West,270,4.5,4.5,28,0.00,,,0.00,meteobridge,2013-11-10 11:38:00,
2013-11-10 03:39:00,37.0,7.0,29.99,West,270,6.0,6.0,28,0.00,,,0.00,meteobridge,2013-11-10 11:39:00,
2013-11-10 03:41:00,37.2,7.9,29.99,WSW,248,5.4,6.0,29,0.00,,,0.00,meteobridge,2013-11-10 11:41:00,
2013-11-10 03:45:00,37.2,8.6,29.99,SW,225,5.4,6.0,30,0.00,,,0.00,meteobridge,2013-11-10 11:45:00,
2013-11-10 03:46:00,37.2,8.6,29.99,SW,225,5.4,6.0,30,0.00,,,0.00,meteobridge,2013-11-10 11:46:00,
2013-11-10 03:50:00,37.6,9.0,29.99,SW,225,4.5,4.5,30,0.00,,,0.00,meteobridge,2013-11-10 11:50:00,
2013-11-10 03:51:00,37.6,9.0,29.99,West,270,4.5,4.5,30,0.00,,,0.00,meteobridge,2013-11-10 11:51:00,
2013-11-10 03:52:00,37.6,9.0,29.99,West,270,3.8,4.5,30,0.00,,,0.00,meteobridge,2013-11-10 11:52:00,
2013-11-10 03:53:00,37.6,9.7,29.99,SW,225,4.5,4.5,31,0.00,,,0.00,meteobridge,2013-11-10 11:53:00,
2013-11-10 03:56:00,37.6,10.4,29.99,West,270,5.4,6.0,32,0.00,,,0.00,meteobridge,2013-11-10 11:56:00,
2013-11-10 03:57:00,37.4,9.5,29.99,West,270,6.0,6.0,31,0.00,,,0.00,meteobridge,2013-11-10 11:57:00,
2013-11-10 03:58:00,37.4,10.2,29.99,West,270,6.9,6.9,32,0.00,,,0.00,meteobridge,2013-11-10 11:58:00,
2013-11-10 04:01:00,37.0,9.9,29.99,West,270,6.0,6.0,32,0.00,,,0.00,meteobridge,2013-11-10 12:01:00,
2013-11-10 04:02:00,37.0,9.9,29.99,West,270,5.4,6.0,32,0.00,,,0.00,meteobridge,2013-11-10 12:02:00,
2013-11-10 04:04:00,36.9,9.7,29.99,West,270,6.0,6.0,32,0.00,,,0.00,meteobridge,2013-11-10 12:04:00,
2013-11-10 04:07:00,36.7,9.5,29.99,West,270,6.9,6.9,32,0.00,,,0.00,meteobridge,2013-11-10 12:07:00,
2013-11-10 04:08:00,36.7,9.5,29.99,West,270,6.0,6.9,32,0.00,,,0.00,meteobridge,2013-11-10 12:08:00,
2013-11-10 04:10:00,36.9,9.7,29.99,West,270,5.4,6.0,32,0.00,,,0.00,meteobridge,2013-11-10 12:10:00,
2013-11-10 04:11:00,36.9,9.7,29.99,West,270,4.5,6.0,32,0.00,,,0.00,meteobridge,2013-11-10 12:11:00,
2013-11-10 04:13:00,36.9,9.0,29.99,West,270,5.4,5.4,31,0.00,,,0.00,meteobridge,2013-11-10 12:13:00,
2013-11-10 04:15:00,36.9,9.0,29.99,West,270,4.5,5.4,31,0.00,,,0.00,meteobridge,2013-11-10 12:15:00,
2013-11-10 04:17:00,36.7,8.2,29.99,West,270,4.5,4.5,30,0.00,,,0.00,meteobridge,2013-11-10 12:17:00,
2013-11-10 04:19:00,36.5,9.5,29.99,WNW,293,6.0,6.0,32,0.00,,,0.00,meteobridge,2013-11-10 12:19:00,
2013-11-10 04:20:00,36.7,9.5,29.99,West,270,5.4,6.0,32,0.00,,,0.00,meteobridge,2013-11-10 12:20:00,
2013-11-10 04:21:00,36.7,9.5,29.99,West,270,6.0,6.0,32,0.00,,,0.00,meteobridge,2013-11-10 12:21:00,
2013-11-10 04:23:00,36.7,9.5,29.99,West,270,5.4,6.0,32,0.00,,,0.00,meteobridge,2013-11-10 12:23:00,
2013-11-10 04:25:00,36.7,9.5,29.99,West,270,6.0,6.0,32,0.00,,,0.00,meteobridge,2013-11-10 12:25:00,
2013-11-10 04:26:00,36.7,9.0,29.99,West,270,6.9,6.9,31,0.00,,,0.00,meteobridge,2013-11-10 12:26:00,
2013-11-10 04:27:00,36.7,9.0,29.99,West,270,6.9,6.9,31,0.00,,,0.00,meteobridge,2013-11-10 12:27:00,
2013-11-10 04:28:00,36.7,9.0,30.00,West,270,6.9,6.9,31,0.00,,,0.00,meteobridge,2013-11-10 12:28:00,
2013-11-10 04:30:00,36.7,9.0,30.00,West,270,6.9,6.9,31,0.00,,,0.00,meteobridge,2013-11-10 12:30:00,
2013-11-10 04:31:00,36.5,8.8,30.00,West,270,6.0,6.9,31,0.00,,,0.00,meteobridge,2013-11-10 12:31:00,
2013-11-10 04:33:00,36.1,7.7,29.99,West,270,6.9,6.9,30,0.00,,,0.00,meteobridge,2013-11-10 12:33:00,
2013-11-10 04:34:00,36.1,7.7,29.99,West,270,5.4,6.9,30,0.00,,,0.00,meteobridge,2013-11-10 12:34:00,
2013-11-10 04:35:00,36.0,7.5,29.99,West,270,5.4,6.9,30,0.00,,,0.00,meteobridge,2013-11-10 12:35:00,
2013-11-10 04:37:00,35.8,7.3,30.00,West,270,5.4,5.4,30,0.00,,,0.00,meteobridge,2013-11-10 12:37:00,
2013-11-10 04:39:00,35.8,8.1,30.00,West,270,4.5,5.4,31,0.00,,,0.00,meteobridge,2013-11-10 12:39:00,
2013-11-10 04:40:00,35.8,8.1,30.00,West,270,4.5,4.5,31,0.00,,,0.00,meteobridge,2013-11-10 12:40:00,
2013-11-10 04:42:00,36.0,8.2,30.00,West,270,5.4,5.4,31,0.00,,,0.00,meteobridge,2013-11-10 12:42:00,
2013-11-10 04:43:00,36.1,7.7,30.00,West,270,5.4,5.4,30,0.00,,,0.00,meteobridge,2013-11-10 12:43:00,
2013-11-10 04:44:00,36.1,7.7,30.00,West,270,5.4,5.4,30,0.00,,,0.00,meteobridge,2013-11-10 12:44:00,
2013-11-10 04:45:00,36.3,7.9,29.99,SW,225,6.0,6.0,30,0.00,,,0.00,meteobridge,2013-11-10 12:45:00,
2013-11-10 04:47:00,36.3,7.9,30.00,West,270,4.5,6.0,30,0.00,,,0.00,meteobridge,2013-11-10 12:47:00,
2013-11-10 04:49:00,36.3,7.2,30.00,West,270,5.4,5.4,29,0.00,,,0.00,meteobridge,2013-11-10 12:49:00,
2013-11-10 04:51:00,36.5,7.2,30.00,West,270,5.4,5.4,29,0.00,,,0.00,meteobridge,2013-11-10 12:51:00,
2013-11-10 04:52:00,36.5,7.2,30.00,West,270,5.4,5.4,29,0.00,,,0.00,meteobridge,2013-11-10 12:52:00,
2013-11-10 04:53:00,36.3,7.2,30.00,West,270,6.0,6.0,29,0.00,,,0.00,meteobridge,2013-11-10 12:53:00,
2013-11-10 04:55:00,36.3,7.2,30.00,WSW,248,5.4,6.0,29,0.00,,,0.00,meteobridge,2013-11-10 12:55:00,
2013-11-10 04:59:00,36.1,7.7,30.00,West,270,3.8,4.5,30,0.00,,,0.00,meteobridge,2013-11-10 12:59:00,
2013-11-10 05:00:00,36.1,7.7,30.01,West,270,3.1,3.8,30,0.00,,,0.00,meteobridge,2013-11-10 13:00:00,
2013-11-10 05:01:00,36.0,6.8,30.00,SW,225,1.6,3.1,29,0.00,,,0.00,meteobridge,2013-11-10 13:01:00,
2013-11-10 05:02:00,36.0,6.8,30.01,West,270,3.1,3.1,29,0.00,,,0.00,meteobridge,2013-11-10 13:02:00,
2013-11-10 05:05:00,36.0,7.5,30.01,WSW,248,5.4,5.4,30,0.00,,,0.00,meteobridge,2013-11-10 13:05:00,
2013-11-10 05:06:00,36.0,6.8,30.01,West,270,6.0,6.0,29,0.00,,,0.00,meteobridge,2013-11-10 13:06:00,
2013-11-10 05:07:00,36.0,6.8,30.01,West,270,6.0,6.0,29,0.00,,,0.00,meteobridge,2013-11-10 13:07:00,
2013-11-10 05:08:00,36.1,7.0,30.00,South,180,3.1,4.5,29,0.00,,,0.00,meteobridge,2013-11-10 13:08:00,
2013-11-10 05:10:00,36.1,7.0,30.01,West,270,5.4,5.4,29,0.00,,,0.00,meteobridge,2013-11-10 13:10:00,
2013-11-10 05:11:00,36.1,7.0,30.01,West,270,5.4,5.4,29,0.00,,,0.00,meteobridge,2013-11-10 13:11:00,
2013-11-10 05:12:00,36.3,7.2,30.01,West,270,4.5,5.4,29,0.00,,,0.00,meteobridge,2013-11-10 13:12:00,
2013-11-10 05:13:00,36.3,7.2,30.01,WNW,293,5.4,5.4,29,0.00,,,0.00,meteobridge,2013-11-10 13:13:00,
2013-11-10 05:14:00,36.5,7.2,30.00,West,270,4.5,5.4,29,0.00,,,0.00,meteobridge,2013-11-10 13:14:00,
2013-11-10 05:16:00,36.7,7.3,30.00,West,270,5.4,5.4,29,0.00,,,0.00,meteobridge,2013-11-10 13:16:00,
2013-11-10 05:17:00,36.7,6.6,30.00,West,270,6.0,6.0,28,0.00,,,0.00,meteobridge,2013-11-10 13:17:00,
2013-11-10 05:18:00,36.7,6.6,30.00,West,270,5.4,6.0,28,0.00,,,0.00,meteobridge,2013-11-10 13:18:00,
2013-11-10 05:20:00,36.5,6.4,30.00,West,270,4.5,5.4,28,0.00,,,0.00,meteobridge,2013-11-10 13:20:00,
2013-11-10 05:22:00,36.5,6.4,30.00,West,270,5.4,5.4,28,0.00,,,0.00,meteobridge,2013-11-10 13:22:00,
2013-11-10 05:24:00,36.5,6.4,30.00,West,270,6.0,6.0,28,0.00,,,0.00,meteobridge,2013-11-10 13:24:00,
2013-11-10 05:26:00,36.5,6.4,30.00,West,270,5.4,6.0,28,0.00,,,0.00,meteobridge,2013-11-10 13:26:00,
2013-11-10 05:27:00,36.5,6.4,30.00,West,270,6.0,6.0,28,0.00,,,0.00,meteobridge,2013-11-10 13:27:00,
2013-11-10 05:30:00,36.3,6.3,30.00,West,270,5.4,5.4,28,0.00,,,0.00,meteobridge,2013-11-10 13:30:00,
2013-11-10 05:32:00,36.3,6.3,30.00,West,270,6.0,6.0,28,0.00,,,0.00,meteobridge,2013-11-10 13:32:00,
2013-11-10 05:33:00,36.1,6.1,30.00,West,270,6.9,6.9,28,0.00,,,0.00,meteobridge,2013-11-10 13:33:00,
2013-11-10 05:34:00,36.1,6.1,30.01,West,270,6.9,6.9,28,0.00,,,0.00,meteobridge,2013-11-10 13:34:00,
2013-11-10 05:37:00,36.0,6.1,30.00,West,270,4.5,6.0,28,0.00,,,0.00,meteobridge,2013-11-10 13:37:00,
2013-11-10 05:38:00,35.8,6.6,30.00,West,270,5.4,5.4,29,0.00,,,0.00,meteobridge,2013-11-10 13:38:00,
2013-11-10 05:39:00,35.8,6.6,30.00,West,270,5.4,5.4,29,0.00,,,0.00,meteobridge,2013-11-10 13:39:00,
2013-11-10 05:40:00,35.8,6.6,30.00,West,270,5.4,5.4,29,0.00,,,0.00,meteobridge,2013-11-10 13:40:00,
2013-11-10 05:41:00,35.8,7.3,30.00,West,270,6.0,6.0,30,0.00,,,0.00,meteobridge,2013-11-10 13:41:00,
2013-11-10 05:42:00,36.0,7.5,30.00,West,270,6.9,6.9,30,0.00,,,0.00,meteobridge,2013-11-10 13:42:00,
2013-11-10 05:44:00,36.0,7.5,30.01,NNW,338,6.9,6.9,30,0.00,,,0.00,meteobridge,2013-11-10 13:44:00,
2013-11-10 05:46:00,36.1,7.7,30.01,WSW,248,6.0,6.9,30,0.00,,,0.00,meteobridge,2013-11-10 13:46:00,
2013-11-10 05:47:00,36.3,7.2,30.01,SW,225,3.8,6.0,29,0.00,,,0.00,meteobridge,2013-11-10 13:47:00,
2013-11-10 05:49:00,36.5,7.2,30.01,SW,225,2.2,3.8,29,0.00,,,0.00,meteobridge,2013-11-10 13:49:00,
2013-11-10 05:51:00,36.3,7.2,30.01,SW,225,0.7,2.2,29,0.00,,,0.00,meteobridge,2013-11-10 13:51:00,
2013-11-10 05:52:00,36.3,7.2,30.01,NE,45,0.7,0.7,29,0.00,,,0.00,meteobridge,2013-11-10 13:52:00,
2013-11-10 05:53:00,36.1,7.0,30.01,SW,225,2.2,2.2,29,0.00,,,0.00,meteobridge,2013-11-10 13:53:00,
2013-11-10 05:54:00,36.1,7.0,30.01,West,270,2.2,2.2,29,0.00,,,0.00,meteobridge,2013-11-10 13:54:00,
2013-11-10 05:55:00,36.1,7.7,30.01,West,270,3.8,3.8,30,0.00,,,0.00,meteobridge,2013-11-10 13:55:00,
2013-11-10 05:56:00,36.0,9.0,30.01,WSW,248,5.4,5.4,32,0.00,,,0.00,meteobridge,2013-11-10 13:56:00,
2013-11-10 05:57:00,36.0,9.0,30.01,WSW,248,5.4,5.4,32,0.00,,,0.00,meteobridge,2013-11-10 13:57:00,
2013-11-10 05:58:00,36.0,9.0,30.01,WSW,248,3.8,5.4,32,0.00,,,0.00,meteobridge,2013-11-10 13:58:00,
2013-11-10 06:01:00,35.8,8.8,30.01,SW,225,1.6,3.1,32,0.00,,,0.00,meteobridge,2013-11-10 14:01:00,
2013-11-10 06:03:00,35.8,8.1,30.01,East,90,1.6,1.6,31,0.00,,,0.00,meteobridge,2013-11-10 14:03:00,
2013-11-10 06:07:00,35.6,8.6,30.02,East,90,0.7,1.6,32,0.00,,,0.00,meteobridge,2013-11-10 14:07:00,
2013-11-10 06:08:00,35.4,8.4,30.02,NE,45,0.7,0.7,32,0.00,,,0.00,meteobridge,2013-11-10 14:08:00,
2013-11-10 06:09:00,35.4,8.4,30.02,North,0,0.7,0.7,32,0.00,,,0.00,meteobridge,2013-11-10 14:09:00,
2013-11-10 06:10:00,35.4,8.4,30.02,NW,315,0.7,0.7,32,0.00,,,0.00,meteobridge,2013-11-10 14:10:00,
2013-11-10 06:13:00,35.4,9.1,30.02,NW,315,2.2,2.2,33,0.00,,,0.00,meteobridge,2013-11-10 14:13:00,
2013-11-10 06:14:00,35.4,9.1,30.02,NW,315,3.1,3.1,33,0.00,,,0.00,meteobridge,2013-11-10 14:14:00,
2013-11-10 06:15:00,35.6,9.3,30.02,NW,315,3.8,3.8,33,0.00,,,0.00,meteobridge,2013-11-10 14:15:00,
2013-11-10 06:16:00,35.6,9.3,30.02,NW,315,3.1,3.8,33,0.00,,,0.00,meteobridge,2013-11-10 14:16:00,
2013-11-10 06:17:00,35.8,9.5,30.02,North,0,1.6,3.8,33,0.00,,,0.00,meteobridge,2013-11-10 14:17:00,
2013-11-10 06:19:00,36.0,9.0,30.02,North,0,0.7,1.6,32,0.00,,,0.00,meteobridge,2013-11-10 14:19:00,
2013-11-10 06:21:00,36.0,9.0,30.02,North,0,1.6,1.6,32,0.00,,,0.00,meteobridge,2013-11-10 14:21:00,
2013-11-10 06:22:00,36.0,9.0,30.01,NW,315,2.2,2.2,32,0.00,,,0.00,meteobridge,2013-11-10 14:22:00,
2013-11-10 06:24:00,36.0,9.0,30.02,North,0,0.7,2.2,32,0.00,,,0.00,meteobridge,2013-11-10 14:24:00,
2013-11-10 06:25:00,36.0,9.0,30.02,East,90,1.6,1.6,32,0.00,,,0.00,meteobridge,2013-11-10 14:25:00,
2013-11-10 06:26:00,36.0,8.2,30.01,East,90,0.7,1.6,31,0.00,,,0.00,meteobridge,2013-11-10 14:26:00,
2013-11-10 06:29:00,35.8,8.1,30.02,East,90,0.7,0.7,31,0.00,,,0.00,meteobridge,2013-11-10 14:29:00,
2013-11-10 06:30:00,35.8,8.1,30.02,North,0,0.7,0.7,31,0.00,,,0.00,meteobridge,2013-11-10 14:30:00,
2013-11-10 06:31:00,35.8,8.1,30.02,North,0,0.0,0.7,31,0.00,,,0.00,meteobridge,2013-11-10 14:31:00,
2013-11-10 06:32:00,35.8,8.1,30.02,North,0,0.0,0.7,31,0.00,,,0.00,meteobridge,2013-11-10 14:32:00,
2013-11-10 06:35:00,35.6,7.9,30.02,West,270,2.2,2.2,31,0.00,,,0.00,meteobridge,2013-11-10 14:35:00,
2013-11-10 06:36:00,35.6,8.6,30.02,West,270,2.2,2.2,32,0.00,,,0.00,meteobridge,2013-11-10 14:36:00,
2013-11-10 06:37:00,35.8,8.8,30.02,NW,315,2.2,2.2,32,0.00,,,0.00,meteobridge,2013-11-10 14:37:00,
2013-11-10 06:39:00,35.8,8.8,30.02,NW,315,1.6,2.2,32,0.00,,,0.00,meteobridge,2013-11-10 14:39:00,
2013-11-10 06:41:00,36.0,9.0,30.02,NW,315,2.2,2.2,32,0.00,,,0.00,meteobridge,2013-11-10 14:41:00,
2013-11-10 06:42:00,36.0,9.0,30.02,NW,315,2.2,2.2,32,0.00,,,0.00,meteobridge,2013-11-10 14:42:00,
2013-11-10 06:44:00,35.8,8.8,30.03,West,270,1.6,3.1,32,0.00,,,0.00,meteobridge,2013-11-10 14:44:00,
2013-11-10 06:45:00,36.0,9.0,30.03,North,0,1.6,2.2,32,0.00,,,0.00,meteobridge,2013-11-10 14:45:00,
2013-11-10 06:47:00,35.8,8.8,30.03,North,0,1.6,1.6,32,0.00,,,0.00,meteobridge,2013-11-10 14:47:00,
2013-11-10 06:48:00,35.8,8.8,30.02,North,0,1.6,1.6,32,0.00,,,0.00,meteobridge,2013-11-10 14:48:00,
2013-11-10 06:50:00,35.8,8.8,30.02,North,0,1.6,1.6,32,0.00,,,0.00,meteobridge,2013-11-10 14:50:00,
2013-11-10 06:51:00,35.8,8.8,30.03,North,0,1.6,1.6,32,0.00,,,0.00,meteobridge,2013-11-10 14:51:00,
2013-11-10 06:52:00,35.8,8.8,30.02,North,0,1.6,1.6,32,0.00,,,0.00,meteobridge,2013-11-10 14:52:00,
2013-11-10 06:53:00,35.8,8.8,30.03,North,0,2.2,2.2,32,0.00,,,0.00,meteobridge,2013-11-10 14:53:00,
2013-11-10 06:56:00,36.0,9.0,30.03,NNW,338,3.1,3.1,32,0.00,,,0.00,meteobridge,2013-11-10 14:56:00,
2013-11-10 06:57:00,36.1,9.1,30.03,North,0,3.8,3.8,32,0.00,,,0.00,meteobridge,2013-11-10 14:57:00,
2013-11-10 06:58:00,36.1,9.1,30.03,North,0,3.1,3.8,32,0.00,,,0.00,meteobridge,2013-11-10 14:58:00,
2013-11-10 06:59:00,36.1,9.1,30.03,North,0,2.2,3.8,32,0.00,,,0.00,meteobridge,2013-11-10 14:59:00,
2013-11-10 07:01:00,36.5,8.8,30.03,North,0,2.2,2.2,31,0.00,,,0.00,meteobridge,2013-11-10 15:01:00,
2013-11-10 07:04:00,36.9,9.0,30.03,North,0,3.1,3.1,31,0.00,,,0.00,meteobridge,2013-11-10 15:04:00,
2013-11-10 07:05:00,37.0,9.1,30.03,North,0,3.1,3.1,31,0.00,,,0.00,meteobridge,2013-11-10 15:05:00,
2013-11-10 07:07:00,37.2,9.3,30.03,North,0,3.1,3.1,31,0.00,,,0.00,meteobridge,2013-11-10 15:07:00,
2013-11-10 07:09:00,37.4,8.8,30.03,North,0,3.1,3.1,30,0.00,,,0.00,meteobridge,2013-11-10 15:09:00,
2013-11-10 07:10:00,37.6,9.0,30.04,North,0,3.8,3.8,30,0.00,,,0.00,meteobridge,2013-11-10 15:10:00,
2013-11-10 07:11:00,37.8,8.4,30.03,North,0,3.1,3.8,29,0.00,,,0.00,meteobridge,2013-11-10 15:11:00,
2013-11-10 07:12:00,37.9,8.4,30.03,North,0,3.1,3.8,29,0.00,,,0.00,meteobridge,2013-11-10 15:12:00,
2013-11-10 07:13:00,38.3,8.1,30.04,North,0,3.1,3.1,28,0.00,,,0.00,meteobridge,2013-11-10 15:13:00,
2013-11-10 07:15:00,38.8,8.4,30.03,North,0,2.2,3.1,28,0.00,,,0.00,meteobridge,2013-11-10 15:15:00,
2013-11-10 07:16:00,39.0,7.9,30.04,North,0,2.2,3.1,27,0.00,,,0.00,meteobridge,2013-11-10 15:16:00,
2013-11-10 07:17:00,39.2,8.1,30.04,North,0,2.2,2.2,27,0.00,,,0.00,meteobridge,2013-11-10 15:17:00,
2013-11-10 07:18:00,39.6,8.2,30.04,North,0,1.6,2.2,27,0.00,,,0.00,meteobridge,2013-11-10 15:18:00,
2013-11-10 07:19:00,40.3,9.0,30.04,North,0,1.6,2.2,27,0.00,,,0.00,meteobridge,2013-11-10 15:19:00,
2013-11-10 07:21:00,41.4,9.9,30.04,North,0,0.7,1.6,27,0.00,,,0.00,meteobridge,2013-11-10 15:21:00,
2013-11-10 07:23:00,42.3,10.6,30.04,North,0,0.7,0.7,27,0.00,,,0.00,meteobridge,2013-11-10 15:23:00,
2013-11-10 07:27:00,43.5,11.7,30.04,North,0,0.0,0.7,27,0.00,,,0.00,meteobridge,2013-11-10 15:27:00,
2013-11-10 07:28:00,43.7,11.8,30.04,North,0,0.0,0.7,27,0.00,,,0.00,meteobridge,2013-11-10 15:28:00,
2013-11-10 07:30:00,44.2,12.4,30.04,North,0,0.7,0.7,27,0.00,,,0.00,meteobridge,2013-11-10 15:30:00,
2013-11-10 07:33:00,44.8,10.2,30.04,South,180,1.6,2.2,24,0.00,,,0.00,meteobridge,2013-11-10 15:33:00,
2013-11-10 07:34:00,45.3,10.6,30.05,South,180,2.2,2.2,24,0.00,,,0.00,meteobridge,2013-11-10 15:34:00,
2013-11-10 07:35:00,45.5,9.9,30.05,SW,225,2.2,2.2,23,0.00,,,0.00,meteobridge,2013-11-10 15:35:00,
2013-11-10 07:38:00,45.5,8.8,30.04,SW,225,3.1,3.1,22,0.00,,,0.00,meteobridge,2013-11-10 15:38:00,
2013-11-10 07:39:00,45.5,8.8,30.04,SW,225,3.1,3.1,22,0.00,,,0.00,meteobridge,2013-11-10 15:39:00,
2013-11-10 07:40:00,45.0,9.3,30.05,SW,225,2.2,3.1,23,0.00,,,0.00,meteobridge,2013-11-10 15:40:00,
2013-11-10 07:41:00,44.8,9.1,30.05,West,270,3.1,3.1,23,0.00,,,0.00,meteobridge,2013-11-10 15:41:00,
2013-11-10 07:43:00,44.4,9.0,30.05,West,270,3.1,3.1,23,0.00,,,0.00,meteobridge,2013-11-10 15:43:00,
2013-11-10 07:44:00,44.4,9.0,30.05,West,270,3.1,3.1,23,0.00,,,0.00,meteobridge,2013-11-10 15:44:00,
2013-11-10 07:45:00,44.2,8.8,30.05,West,270,3.1,3.1,23,0.00,,,0.00,meteobridge,2013-11-10 15:45:00,
2013-11-10 07:46:00,44.4,9.0,30.05,West,270,3.1,3.1,23,0.00,,,0.00,meteobridge,2013-11-10 15:46:00,
2013-11-10 07:49:00,44.2,9.7,30.05,NW,315,1.6,1.6,24,0.00,,,0.00,meteobridge,2013-11-10 15:49:00,
2013-11-10 07:50:00,44.6,10.0,30.05,NW,315,0.7,1.6,24,0.00,,,0.00,meteobridge,2013-11-10 15:50:00,
2013-11-10 07:51:00,44.6,10.0,30.05,NW,315,0.7,1.6,24,0.00,,,0.00,meteobridge,2013-11-10 15:51:00,
2013-11-10 07:53:00,45.7,11.8,30.05,East,90,0.7,0.7,25,0.00,,,0.00,meteobridge,2013-11-10 15:53:00,
2013-11-10 07:54:00,46.2,12.4,30.05,East,90,0.7,0.7,25,0.00,,,0.00,meteobridge,2013-11-10 15:54:00,
2013-11-10 07:56:00,47.3,13.3,30.05,East,90,0.7,1.6,25,0.00,,,0.00,meteobridge,2013-11-10 15:56:00,
2013-11-10 07:57:00,47.8,13.6,30.05,East,90,0.7,1.6,25,0.00,,,0.00,meteobridge,2013-11-10 15:57:00,
2013-11-10 07:59:00,49.8,14.5,30.05,ENE,68,1.6,1.6,24,0.00,,,0.00,meteobridge,2013-11-10 15:59:00,
2013-11-10 08:00:00,50.0,12.6,30.05,NE,45,1.6,1.6,22,0.00,,,0.00,meteobridge,2013-11-10 16:00:00,
2013-11-10 08:01:00,50.4,12.9,30.05,NE,45,0.7,1.6,22,0.00,,,0.00,meteobridge,2013-11-10 16:01:00,
2013-11-10 08:02:00,50.5,13.1,30.05,NE,45,0.7,1.6,22,0.00,,,0.00,meteobridge,2013-11-10 16:02:00,
2013-11-10 08:07:00,51.6,10.8,30.05,SE,135,1.6,3.1,19,0.00,,,0.00,meteobridge,2013-11-10 16:07:00,
2013-11-10 08:08:00,51.6,10.8,30.05,SE,135,1.6,2.2,19,0.00,,,0.00,meteobridge,2013-11-10 16:08:00,
2013-11-10 08:09:00,51.6,10.8,30.05,SE,135,2.2,2.2,19,0.00,,,0.00,meteobridge,2013-11-10 16:09:00,
2013-11-10 08:12:00,52.2,12.2,30.05,SE,135,0.7,1.6,20,0.00,,,0.00,meteobridge,2013-11-10 16:12:00,
2013-11-10 08:13:00,52.3,12.4,30.05,SW,225,2.2,2.2,20,0.00,,,0.00,meteobridge,2013-11-10 16:13:00,
2013-11-10 08:14:00,52.2,11.1,30.05,SW,225,3.8,3.8,19,0.00,,,0.00,meteobridge,2013-11-10 16:14:00,
2013-11-10 08:17:00,50.7,11.1,30.06,SW,225,3.8,5.4,20,0.00,,,0.00,meteobridge,2013-11-10 16:17:00,
2013-11-10 08:18:00,50.7,11.1,30.06,SW,225,4.5,5.4,20,0.00,,,0.00,meteobridge,2013-11-10 16:18:00,
2013-11-10 08:19:00,50.4,11.8,30.05,SW,225,3.8,4.5,21,0.00,,,0.00,meteobridge,2013-11-10 16:19:00,
2013-11-10 08:20:00,50.4,11.8,30.05,SW,225,3.8,4.5,21,0.00,,,0.00,meteobridge,2013-11-10 16:20:00,
2013-11-10 08:21:00,50.2,11.7,30.06,SW,225,3.1,3.8,21,0.00,,,0.00,meteobridge,2013-11-10 16:21:00,
2013-11-10 08:24:00,50.4,11.8,30.06,SW,225,2.2,2.2,21,0.00,,,0.00,meteobridge,2013-11-10 16:24:00,
2013-11-10 08:25:00,50.5,12.0,30.06,SSW,203,3.1,3.1,21,0.00,,,0.00,meteobridge,2013-11-10 16:25:00,
2013-11-10 08:26:00,50.7,12.2,30.06,South,180,2.2,3.1,21,0.00,,,0.00,meteobridge,2013-11-10 16:26:00,
2013-11-10 08:29:00,52.3,13.5,30.06,South,180,2.2,2.2,21,0.00,,,0.00,meteobridge,2013-11-10 16:29:00,
2013-11-10 08:30:00,52.3,13.5,30.06,South,180,2.2,2.2,21,0.00,,,0.00,meteobridge,2013-11-10 16:30:00,
2013-11-10 08:31:00,53.2,14.4,30.06,SE,135,2.2,2.2,21,0.00,,,0.00,meteobridge,2013-11-10 16:31:00,
2013-11-10 08:32:00,53.8,13.6,30.06,East,90,1.6,2.2,20,0.00,,,0.00,meteobridge,2013-11-10 16:32:00,
2013-11-10 08:36:00,54.7,13.3,30.06,East,90,1.6,1.6,19,0.00,,,0.00,meteobridge,2013-11-10 16:36:00,
2013-11-10 08:37:00,54.9,13.3,30.06,East,90,1.6,1.6,19,0.00,,,0.00,meteobridge,2013-11-10 16:37:00,
2013-11-10 08:38:00,54.7,12.0,30.06,East,90,1.6,1.6,18,0.00,,,0.00,meteobridge,2013-11-10 16:38:00,
2013-11-10 08:41:00,54.0,12.6,30.06,East,90,0.7,1.6,19,0.00,,,0.00,meteobridge,2013-11-10 16:41:00,
2013-11-10 08:42:00,54.0,12.6,30.06,East,90,0.7,1.6,19,0.00,,,0.00,meteobridge,2013-11-10 16:42:00,
2013-11-10 08:43:00,54.0,12.6,30.06,East,90,0.7,0.7,19,0.00,,,0.00,meteobridge,2013-11-10 16:43:00,
2013-11-10 08:44:00,54.1,12.7,30.06,East,90,0.7,0.7,19,0.00,,,0.00,meteobridge,2013-11-10 16:44:00,
2013-11-10 08:48:00,54.9,13.3,30.06,South,180,1.6,3.1,19,0.00,,,0.00,meteobridge,2013-11-10 16:48:00,
2013-11-10 08:49:00,54.9,13.3,30.06,South,180,1.6,3.1,19,0.00,,,0.00,meteobridge,2013-11-10 16:49:00,
2013-11-10 08:53:00,54.9,13.3,30.06,South,180,0.7,0.7,19,0.00,,,0.00,meteobridge,2013-11-10 16:53:00,
2013-11-10 08:54:00,54.5,13.1,-100.00,NE,45,1.6,1.6,19,0.00,,,0.00,meteobridge,2013-11-10 16:54:00,
2013-11-10 08:55:00,54.3,12.9,-100.00,NE,45,1.6,1.6,19,0.00,,,0.00,meteobridge,2013-11-10 16:55:00,
2013-11-10 08:57:00,54.1,12.7,-100.00,West,270,1.6,1.6,19,0.00,,,0.00,meteobridge,2013-11-10 16:57:00,
2013-11-10 08:58:00,53.8,12.4,-100.00,SW,225,2.2,2.2,19,0.00,,,0.00,meteobridge,2013-11-10 16:58:00,
2013-11-10 08:59:00,53.6,12.4,-100.00,West,270,2.2,2.2,19,0.00,,,0.00,meteobridge,2013-11-10 16:59:00,
2013-11-10 09:00:00,53.2,13.1,-100.00,West,270,2.2,2.2,20,0.00,,,0.00,meteobridge,2013-11-10 17:00:00,
2013-11-10 09:01:00,53.2,13.1,-100.00,West,270,2.2,2.2,20,0.00,,,0.00,meteobridge,2013-11-10 17:01:00,
2013-11-10 09:02:00,53.1,13.1,-100.00,North,0,1.6,2.2,20,0.00,,,0.00,meteobridge,2013-11-10 17:02:00,
2013-11-10 09:03:00,53.2,14.4,-100.00,North,0,1.6,1.6,21,0.00,,,0.00,meteobridge,2013-11-10 17:03:00,
2013-11-10 09:04:00,53.2,14.4,-100.00,NW,315,1.6,1.6,21,0.00,,,0.00,meteobridge,2013-11-10 17:04:00,
2013-11-10 09:05:00,54.0,14.9,-100.00,North,0,2.2,2.2,21,0.00,,,0.00,meteobridge,2013-11-10 17:05:00,
2013-11-10 09:06:00,54.1,15.1,-100.00,North,0,2.2,2.2,21,0.00,,,0.00,meteobridge,2013-11-10 17:06:00,
2013-11-10 09:08:00,55.2,16.0,-100.00,North,0,2.2,2.2,21,0.00,,,0.00,meteobridge,2013-11-10 17:08:00,
2013-11-10 09:09:00,55.8,16.3,-100.00,North,0,2.2,2.2,21,0.00,,,0.00,meteobridge,2013-11-10 17:09:00,
2013-11-10 09:10:00,56.7,16.0,-100.00,North,0,1.6,2.2,20,0.00,,,0.00,meteobridge,2013-11-10 17:10:00,
2013-11-10 09:12:00,57.9,15.8,-100.00,North,0,2.2,2.2,19,0.00,,,0.00,meteobridge,2013-11-10 17:12:00,
2013-11-10 09:13:00,58.3,16.2,-100.00,North,0,1.6,2.2,19,0.00,,,0.00,meteobridge,2013-11-10 17:13:00,
2013-11-10 09:14:00,58.8,16.7,-100.00,North,0,1.6,2.2,19,0.00,,,0.00,meteobridge,2013-11-10 17:14:00,
2013-11-10 09:15:00,59.9,17.6,-100.00,North,0,0.7,1.6,19,0.00,,,0.00,meteobridge,2013-11-10 17:15:00,
2013-11-10 09:18:00,61.7,19.0,-100.00,NE,45,1.6,1.6,19,0.00,,,0.00,meteobridge,2013-11-10 17:18:00,
2013-11-10 09:19:00,62.1,18.0,-100.00,SW,225,2.2,2.2,18,0.00,,,0.00,meteobridge,2013-11-10 17:19:00,
2013-11-10 09:20:00,62.1,16.7,-100.00,NNW,338,1.6,2.2,17,0.00,,,0.00,meteobridge,2013-11-10 17:20:00,
2013-11-10 09:21:00,62.2,18.1,-100.00,North,0,1.6,1.6,18,0.00,,,0.00,meteobridge,2013-11-10 17:21:00,
2013-11-10 09:22:00,62.2,18.1,-100.00,NW,315,0.7,1.6,18,0.00,,,0.00,meteobridge,2013-11-10 17:22:00,
2013-11-10 09:23:00,62.2,18.1,-100.00,NW,315,1.6,1.6,18,0.00,,,0.00,meteobridge,2013-11-10 17:23:00,
2013-11-10 09:24:00,62.2,18.1,-100.00,NW,315,2.2,2.2,18,0.00,,,0.00,meteobridge,2013-11-10 17:24:00,
2013-11-10 09:27:00,61.9,16.5,-100.00,SW,225,3.1,3.1,17,0.00,,,0.00,meteobridge,2013-11-10 17:27:00,
2013-11-10 09:28:00,61.9,16.5,-100.00,SW,225,2.2,3.1,17,0.00,,,0.00,meteobridge,2013-11-10 17:28:00,
2013-11-10 09:29:00,61.7,16.3,-100.00,SW,225,3.1,3.1,17,0.00,,,0.00,meteobridge,2013-11-10 17:29:00,
2013-11-10 09:30:00,61.7,16.3,-100.00,SE,135,1.6,3.1,17,0.00,,,0.00,meteobridge,2013-11-10 17:30:00,
2013-11-10 09:33:00,62.2,16.9,-100.00,SE,135,2.2,2.2,17,0.00,,,0.00,meteobridge,2013-11-10 17:33:00,
2013-11-10 09:34:00,62.2,16.9,-100.00,SE,135,2.2,2.2,17,0.00,,,0.00,meteobridge,2013-11-10 17:34:00,
2013-11-10 09:36:00,62.8,17.2,-100.00,WNW,293,2.2,3.1,17,0.00,,,0.00,meteobridge,2013-11-10 17:36:00,
2013-11-10 09:37:00,62.8,17.2,-100.00,NW,315,1.6,3.1,17,0.00,,,0.00,meteobridge,2013-11-10 17:37:00,
2013-11-10 09:39:00,63.0,17.4,-100.00,East,90,0.7,2.2,17,0.00,,,0.00,meteobridge,2013-11-10 17:39:00,
2013-11-10 09:41:00,63.7,15.1,-100.00,NNW,338,3.1,3.1,15,0.00,,,0.00,meteobridge,2013-11-10 17:41:00,
2013-11-10 09:42:00,63.9,15.3,-100.00,North,0,3.1,3.1,15,0.00,,,0.00,meteobridge,2013-11-10 17:42:00,
2013-11-10 09:45:00,64.6,17.4,-100.00,NE,45,2.2,3.1,16,0.00,,,0.00,meteobridge,2013-11-10 17:45:00,
2013-11-10 09:46:00,65.1,16.3,-100.00,NW,315,3.8,3.8,15,0.00,,,0.00,meteobridge,2013-11-10 17:46:00,
2013-11-10 09:48:00,65.8,16.9,-100.00,North,0,1.6,3.8,15,0.00,,,0.00,meteobridge,2013-11-10 17:48:00,
2013-11-10 09:49:00,66.4,18.9,-100.00,North,0,0.7,2.2,16,0.00,,,0.00,meteobridge,2013-11-10 17:49:00,
2013-11-10 09:50:00,67.1,18.0,-100.00,East,90,1.6,1.6,15,0.00,,,0.00,meteobridge,2013-11-10 17:50:00,
2013-11-10 09:51:00,67.5,18.1,-100.00,East,90,1.6,1.6,15,0.00,,,0.00,meteobridge,2013-11-10 17:51:00,
2013-11-10 09:52:00,67.6,16.7,-100.00,NE,45,3.1,3.1,14,0.00,,,0.00,meteobridge,2013-11-10 17:52:00,
2013-11-10 09:53:00,67.5,16.5,-100.00,NE,45,3.1,3.8,14,0.00,,,0.00,meteobridge,2013-11-10 17:53:00,
2013-11-10 09:54:00,67.1,16.3,-100.00,NE,45,3.8,3.8,14,0.00,,,0.00,meteobridge,2013-11-10 17:54:00,
2013-11-10 09:55:00,66.7,16.0,-100.00,East,90,3.8,3.8,14,0.00,,,0.00,meteobridge,2013-11-10 17:55:00,
2013-11-10 09:56:00,66.0,15.4,-100.00,NE,45,3.1,3.8,14,0.00,,,0.00,meteobridge,2013-11-10 17:56:00,
2013-11-10 09:57:00,66.0,15.4,-100.00,NE,45,3.1,3.8,14,0.00,,,0.00,meteobridge,2013-11-10 17:57:00,
2013-11-10 10:00:00,64.2,14.0,-100.00,NE,45,4.5,6.0,14,0.00,,,0.00,meteobridge,2013-11-10 18:00:00,
2013-11-10 10:01:00,64.2,14.0,-100.00,NE,45,5.4,5.4,14,0.00,,,0.00,meteobridge,2013-11-10 18:01:00,
2013-11-10 10:02:00,64.2,14.0,-100.00,NE,45,3.8,5.4,14,0.00,,,0.00,meteobridge,2013-11-10 18:02:00,
2013-11-10 10:03:00,64.6,14.4,-100.00,East,90,3.8,5.4,14,0.00,,,0.00,meteobridge,2013-11-10 18:03:00,
2013-11-10 10:04:00,64.8,14.4,-100.00,East,90,4.5,5.4,14,0.00,,,0.00,meteobridge,2013-11-10 18:04:00,
2013-11-10 10:07:00,64.8,12.7,-100.00,East,90,5.4,5.4,13,0.00,,,0.00,meteobridge,2013-11-10 18:07:00,
2013-11-10 10:08:00,64.6,12.6,-100.00,NE,45,5.4,5.4,13,0.00,,,0.00,meteobridge,2013-11-10 18:08:00,
2013-11-10 10:09:00,64.6,12.6,-100.00,NE,45,5.4,5.4,13,0.00,,,0.00,meteobridge,2013-11-10 18:09:00,
2013-11-10 10:12:00,64.6,12.6,-100.00,NE,45,6.0,6.9,13,0.00,,,0.00,meteobridge,2013-11-10 18:12:00,
2013-11-10 10:13:00,64.8,14.4,-100.00,NE,45,4.5,6.9,14,0.00,,,0.00,meteobridge,2013-11-10 18:13:00,
2013-11-10 10:14:00,64.9,16.2,-100.00,East,90,3.8,9.2,15,0.00,,,0.00,meteobridge,2013-11-10 18:14:00,
2013-11-10 10:15:00,65.3,16.5,-100.00,East,90,4.5,9.2,15,0.00,,,0.00,meteobridge,2013-11-10 18:15:00,
2013-11-10 10:17:00,65.8,16.9,-100.00,NE,45,3.1,4.5,15,0.00,,,0.00,meteobridge,2013-11-10 18:17:00,
2013-11-10 10:18:00,66.2,17.2,-100.00,East,90,4.5,4.5,15,0.00,,,0.00,meteobridge,2013-11-10 18:18:00,
2013-11-10 10:19:00,66.2,17.2,-100.00,East,90,4.5,4.5,15,0.00,,,0.00,meteobridge,2013-11-10 18:19:00,
2013-11-10 10:22:00,65.5,15.1,-100.00,ENE,68,3.1,3.1,14,0.00,,,0.00,meteobridge,2013-11-10 18:22:00,
2013-11-10 10:23:00,65.5,15.1,-100.00,NE,45,3.8,3.8,14,0.00,,,0.00,meteobridge,2013-11-10 18:23:00,
2013-11-10 10:24:00,65.3,14.9,-100.00,East,90,3.8,3.8,14,0.00,,,0.00,meteobridge,2013-11-10 18:24:00,
2013-11-10 10:25:00,65.1,14.7,-100.00,East,90,4.5,4.5,14,0.00,,,0.00,meteobridge,2013-11-10 18:25:00,
2013-11-10 10:26:00,64.9,14.5,-100.00,East,90,4.5,4.5,14,0.00,,,0.00,meteobridge,2013-11-10 18:26:00,
2013-11-10 10:27:00,64.8,14.4,-100.00,East,90,3.1,4.5,14,0.00,,,0.00,meteobridge,2013-11-10 18:27:00,
2013-11-10 10:29:00,64.8,14.4,-100.00,East,90,3.8,3.8,14,0.00,,,0.00,meteobridge,2013-11-10 18:29:00,
2013-11-10 10:30:00,64.9,14.5,-100.00,ESE,113,3.8,3.8,14,0.00,,,0.00,meteobridge,2013-11-10 18:30:00,
2013-11-10 10:31:00,65.3,14.9,-100.00,East,90,3.1,3.8,14,0.00,,,0.00,meteobridge,2013-11-10 18:31:00,
2013-11-10 10:33:00,65.3,14.9,-100.00,East,90,3.1,5.4,14,0.00,,,0.00,meteobridge,2013-11-10 18:33:00,
2013-11-10 10:35:00,65.3,14.9,-100.00,East,90,6.0,6.0,14,0.00,,,0.00,meteobridge,2013-11-10 18:35:00,
2013-11-10 10:36:00,64.9,14.5,-100.00,East,90,5.4,6.0,14,0.00,,,0.00,meteobridge,2013-11-10 18:36:00,
2013-11-10 10:39:00,64.6,14.4,-100.00,East,90,5.4,5.4,14,0.00,,,0.00,meteobridge,2013-11-10 18:39:00,
2013-11-10 10:40:00,64.2,14.0,-100.00,SE,135,5.4,5.4,14,0.00,,,0.00,meteobridge,2013-11-10 18:40:00,
2013-11-10 10:41:00,64.2,14.0,-100.00,SE,135,5.4,5.4,14,0.00,,,0.00,meteobridge,2013-11-10 18:41:00,
2013-11-10 10:42:00,64.0,13.8,-100.00,SE,135,5.4,5.4,14,0.00,,,0.00,meteobridge,2013-11-10 18:42:00,
2013-11-10 10:43:00,63.7,13.6,-100.00,East,90,4.5,5.4,14,0.00,,,0.00,meteobridge,2013-11-10 18:43:00,
2013-11-10 10:44:00,63.5,13.5,-100.00,East,90,5.4,5.4,14,0.00,,,0.00,meteobridge,2013-11-10 18:44:00,
2013-11-10 10:47:00,63.1,13.1,-100.00,East,90,5.4,5.4,14,0.00,,,0.00,meteobridge,2013-11-10 18:47:00,
2013-11-10 10:50:00,63.1,13.1,-100.00,East,90,3.1,5.4,14,0.00,,,0.00,meteobridge,2013-11-10 18:50:00,
2013-11-10 10:51:00,63.0,12.9,-100.00,East,90,5.4,5.4,14,0.00,,,0.00,meteobridge,2013-11-10 18:51:00,
2013-11-10 10:52:00,63.0,12.9,-100.00,SE,135,3.8,5.4,14,0.00,,,0.00,meteobridge,2013-11-10 18:52:00,
2013-11-10 10:53:00,63.0,12.9,-100.00,SE,135,4.5,5.4,14,0.00,,,0.00,meteobridge,2013-11-10 18:53:00,
2013-11-10 10:54:00,63.0,12.9,-100.00,East,90,3.8,4.5,14,0.00,,,0.00,meteobridge,2013-11-10 18:54:00,
2013-11-10 10:55:00,63.1,13.1,-100.00,SE,135,3.8,3.8,14,0.00,,,0.00,meteobridge,2013-11-10 18:55:00,
2013-11-10 10:57:00,63.3,13.3,-100.00,SE,135,4.5,6.0,14,0.00,,,0.00,meteobridge,2013-11-10 18:57:00,
2013-11-10 10:58:00,63.5,13.5,-100.00,SE,135,4.5,6.0,14,0.00,,,0.00,meteobridge,2013-11-10 18:58:00,
2013-11-10 10:59:00,63.5,13.5,-100.00,South,180,3.1,4.5,14,0.00,,,0.00,meteobridge,2013-11-10 18:59:00,
2013-11-10 11:02:00,63.5,13.5,-100.00,SE,135,5.4,6.0,14,0.00,,,0.00,meteobridge,2013-11-10 19:02:00,
2013-11-10 11:03:00,63.7,13.6,-100.00,SE,135,6.0,6.0,14,0.00,,,0.00,meteobridge,2013-11-10 19:03:00,
2013-11-10 11:04:00,63.7,13.6,-100.00,SE,135,6.0,6.0,14,0.00,,,0.00,meteobridge,2013-11-10 19:04:00,
2013-11-10 11:05:00,63.7,13.6,-100.00,SE,135,6.9,6.9,14,0.00,,,0.00,meteobridge,2013-11-10 19:05:00,
2013-11-10 11:06:00,63.7,13.6,-100.00,SE,135,6.9,6.9,14,0.00,,,0.00,meteobridge,2013-11-10 19:06:00,
2013-11-10 11:09:00,64.2,14.0,-100.00,South,180,5.4,6.0,14,0.00,,,0.00,meteobridge,2013-11-10 19:09:00,
2013-11-10 11:10:00,64.8,14.4,-100.00,SE,135,7.6,7.6,14,0.00,,,0.00,meteobridge,2013-11-10 19:10:00,
2013-11-10 11:11:00,64.9,14.5,-100.00,South,180,7.6,7.6,14,0.00,,,0.00,meteobridge,2013-11-10 19:11:00,
2013-11-10 11:13:00,65.1,14.7,-100.00,SE,135,6.9,7.6,14,0.00,,,0.00,meteobridge,2013-11-10 19:13:00,
2013-11-10 11:14:00,65.3,14.9,-100.00,SE,135,6.9,6.9,14,0.00,,,0.00,meteobridge,2013-11-10 19:14:00,
2013-11-10 11:15:00,65.5,15.1,-100.00,SE,135,6.0,6.9,14,0.00,,,0.00,meteobridge,2013-11-10 19:15:00,
2013-11-10 11:16:00,65.8,15.3,-100.00,SE,135,5.4,6.9,14,0.00,,,0.00,meteobridge,2013-11-10 19:16:00,
2013-11-10 11:17:00,66.2,15.6,-100.00,East,90,9.2,9.2,14,0.00,,,0.00,meteobridge,2013-11-10 19:17:00,
2013-11-10 11:20:00,67.1,14.5,-100.00,East,90,6.0,8.3,13,0.00,,,0.00,meteobridge,2013-11-10 19:20:00,
2013-11-10 11:21:00,67.3,14.7,-100.00,SE,135,6.0,6.9,13,0.00,,,0.00,meteobridge,2013-11-10 19:21:00,
2013-11-10 11:22:00,67.3,14.7,-100.00,SE,135,6.0,6.9,13,0.00,,,0.00,meteobridge,2013-11-10 19:22:00,
2013-11-10 11:25:00,67.8,15.1,-100.00,SE,135,4.5,6.9,13,0.00,,,0.00,meteobridge,2013-11-10 19:25:00,
2013-11-10 11:26:00,68.0,15.3,-100.00,SE,135,6.0,6.0,13,0.00,,,0.00,meteobridge,2013-11-10 19:26:00,
2013-11-10 11:28:00,68.2,15.4,-100.00,SSE,158,4.5,8.3,13,0.00,,,0.00,meteobridge,2013-11-10 19:28:00,
2013-11-10 11:29:00,68.4,15.6,-100.00,SE,135,6.0,6.0,13,0.00,,,0.00,meteobridge,2013-11-10 19:29:00,
2013-11-10 11:31:00,68.5,15.8,-100.00,South,180,7.6,7.6,13,0.00,,,0.00,meteobridge,2013-11-10 19:31:00,
2013-11-10 11:32:00,68.9,16.0,-100.00,South,180,7.6,7.6,13,0.00,,,0.00,meteobridge,2013-11-10 19:32:00,
2013-11-10 11:33:00,68.9,16.0,-100.00,South,180,8.3,8.3,13,0.00,,,0.00,meteobridge,2013-11-10 19:33:00,
2013-11-10 11:35:00,69.1,16.2,-100.00,South,180,8.3,8.3,13,0.00,,,0.00,meteobridge,2013-11-10 19:35:00,
2013-11-10 11:37:00,68.7,15.8,30.03,South,180,8.3,8.3,13,0.00,,,0.00,meteobridge,2013-11-10 19:37:00,
2013-11-10 11:38:00,68.9,16.0,30.03,South,180,6.9,8.3,13,0.00,,,0.00,meteobridge,2013-11-10 19:38:00,
2013-11-10 11:39:00,69.1,16.2,30.03,South,180,7.6,8.3,13,0.00,,,0.00,meteobridge,2013-11-10 19:39:00,
2013-11-10 11:40:00,69.1,16.2,30.03,South,180,7.6,7.6,13,0.00,,,0.00,meteobridge,2013-11-10 19:40:00,
2013-11-10 11:42:00,69.6,16.5,30.03,South,180,8.3,8.3,13,0.00,,,0.00,meteobridge,2013-11-10 19:42:00,
2013-11-10 11:43:00,69.8,16.7,30.03,South,180,8.3,8.3,13,0.00,,,0.00,meteobridge,2013-11-10 19:43:00,
2013-11-10 11:44:00,69.8,16.7,30.03,South,180,8.3,8.3,13,0.00,,,0.00,meteobridge,2013-11-10 19:44:00,
2013-11-10 11:45:00,69.6,16.5,30.03,SW,225,6.9,8.3,13,0.00,,,0.00,meteobridge,2013-11-10 19:45:00,
2013-11-10 11:48:00,69.6,16.5,30.03,SE,135,7.6,9.2,13,0.00,,,0.00,meteobridge,2013-11-10 19:48:00,
2013-11-10 11:50:00,70.2,17.1,30.02,SSE,158,9.2,9.2,13,0.00,,,0.00,meteobridge,2013-11-10 19:50:00,
2013-11-10 11:51:00,70.0,15.1,30.03,East,90,8.3,9.2,12,0.00,,,0.00,meteobridge,2013-11-10 19:51:00,
2013-11-10 11:52:00,70.2,17.1,30.02,SSE,158,5.4,8.3,13,0.00,,,0.00,meteobridge,2013-11-10 19:52:00,
2013-11-10 11:53:00,70.5,17.2,30.03,South,180,3.8,6.9,13,0.00,,,0.00,meteobridge,2013-11-10 19:53:00,
2013-11-10 11:54:00,70.5,17.2,30.03,South,180,3.8,6.9,13,0.00,,,0.00,meteobridge,2013-11-10 19:54:00,
2013-11-10 11:56:00,70.7,17.4,30.03,East,90,6.9,7.6,13,0.00,,,0.00,meteobridge,2013-11-10 19:56:00,
2013-11-10 11:58:00,71.1,17.8,30.02,SE,135,4.5,5.4,13,0.00,,,0.00,meteobridge,2013-11-10 19:58:00,
2013-11-10 12:00:00,71.4,16.2,30.02,SE,135,4.5,5.4,12,0.00,,,0.00,meteobridge,2013-11-10 20:00:00,
2013-11-10 12:01:00,71.4,16.2,30.02,East,90,6.0,6.0,12,0.00,,,0.00,meteobridge,2013-11-10 20:01:00,
2013-11-10 12:05:00,71.8,16.5,30.02,East,90,2.2,3.1,12,0.00,,,0.00,meteobridge,2013-11-10 20:05:00,
2013-11-10 12:06:00,72.0,18.5,30.02,North,0,1.6,3.1,13,0.00,,,0.00,meteobridge,2013-11-10 20:06:00,
2013-11-10 12:08:00,71.2,16.0,30.02,East,90,5.4,6.0,12,0.00,,,0.00,meteobridge,2013-11-10 20:08:00,
2013-11-10 12:11:00,70.5,17.2,30.01,East,90,3.1,6.0,13,0.00,,,0.00,meteobridge,2013-11-10 20:11:00,
2013-11-10 12:12:00,70.7,17.4,30.01,East,90,2.2,6.0,13,0.00,,,0.00,meteobridge,2013-11-10 20:12:00,
2013-11-10 12:13:00,71.1,17.8,30.01,East,90,1.6,2.2,13,0.00,,,0.00,meteobridge,2013-11-10 20:13:00,
2013-11-10 12:14:00,71.4,18.0,30.01,East,90,2.2,2.2,13,0.00,,,0.00,meteobridge,2013-11-10 20:14:00,
2013-11-10 12:16:00,72.3,16.9,30.01,East,90,6.0,6.0,12,0.00,,,0.00,meteobridge,2013-11-10 20:16:00,
2013-11-10 12:17:00,72.1,16.7,30.01,SE,135,6.9,6.9,12,0.00,,,0.00,meteobridge,2013-11-10 20:17:00,
2013-11-10 12:19:00,72.1,18.5,30.02,East,90,4.5,6.9,13,0.00,,,0.00,meteobridge,2013-11-10 20:19:00,
2013-11-10 12:20:00,72.1,18.5,30.01,East,90,3.1,5.4,13,0.00,,,0.00,meteobridge,2013-11-10 20:20:00,
2013-11-10 12:22:00,72.3,16.9,30.01,NE,45,3.8,4.5,12,0.00,,,0.00,meteobridge,2013-11-10 20:22:00,
2013-11-10 12:24:00,73.0,17.4,30.01,SE,135,3.8,3.8,12,0.00,,,0.00,meteobridge,2013-11-10 20:24:00,
2013-11-10 12:25:00,73.6,17.8,30.01,SE,135,6.0,6.0,12,0.00,,,0.00,meteobridge,2013-11-10 20:25:00,
2013-11-10 12:26:00,73.6,17.8,30.01,SE,135,3.8,6.0,12,0.00,,,0.00,meteobridge,2013-11-10 20:26:00,
2013-11-10 12:28:00,73.0,17.4,30.01,SSE,158,5.4,5.4,12,0.00,,,0.00,meteobridge,2013-11-10 20:28:00,
2013-11-10 12:29:00,73.0,17.4,30.01,SE,135,4.5,5.4,12,0.00,,,0.00,meteobridge,2013-11-10 20:29:00,
2013-11-10 12:31:00,72.3,16.9,30.01,SSE,158,5.4,6.9,12,0.00,,,0.00,meteobridge,2013-11-10 20:31:00,
2013-11-10 12:32:00,72.0,16.5,30.01,South,180,5.4,6.9,12,0.00,,,0.00,meteobridge,2013-11-10 20:32:00,
2013-11-10 12:33:00,72.1,18.5,30.01,SSE,158,3.1,5.4,13,0.00,,,0.00,meteobridge,2013-11-10 20:33:00,
2013-11-10 12:34:00,72.5,18.9,30.01,East,90,6.0,6.0,13,0.00,,,0.00,meteobridge,2013-11-10 20:34:00,
2013-11-10 12:36:00,72.5,17.1,30.01,SE,135,6.9,6.9,12,0.00,,,0.00,meteobridge,2013-11-10 20:36:00,
2013-11-10 12:37:00,72.5,17.1,30.01,SE,135,4.5,6.9,12,0.00,,,0.00,meteobridge,2013-11-10 20:37:00,
2013-11-10 12:40:00,72.7,17.1,30.01,South,180,7.6,7.6,12,0.00,,,0.00,meteobridge,2013-11-10 20:40:00,
2013-11-10 12:41:00,72.9,17.2,30.01,SE,135,6.0,7.6,12,0.00,,,0.00,meteobridge,2013-11-10 20:41:00,
2013-11-10 12:42:00,73.0,17.4,30.01,South,180,3.1,7.6,12,0.00,,,0.00,meteobridge,2013-11-10 20:42:00,
2013-11-10 12:43:00,73.4,17.8,30.01,South,180,6.0,7.6,12,0.00,,,0.00,meteobridge,2013-11-10 20:43:00,
2013-11-10 12:45:00,73.0,17.4,30.01,ESE,113,6.0,7.6,12,0.00,,,0.00,meteobridge,2013-11-10 20:45:00,
2013-11-10 12:46:00,73.0,17.4,30.01,ESE,113,6.0,7.6,12,0.00,,,0.00,meteobridge,2013-11-10 20:46:00,
2013-11-10 12:48:00,73.4,17.8,30.01,South,180,8.3,8.3,12,0.00,,,0.00,meteobridge,2013-11-10 20:48:00,
2013-11-10 12:49:00,73.4,17.8,30.01,South,180,8.3,8.3,12,0.00,,,0.00,meteobridge,2013-11-10 20:49:00,
2013-11-10 12:51:00,74.5,18.5,30.00,SE,135,6.0,8.3,12,0.00,,,0.00,meteobridge,2013-11-10 20:51:00,
2013-11-10 12:52:00,73.4,17.8,30.01,East,90,4.5,8.3,12,0.00,,,0.00,meteobridge,2013-11-10 20:52:00,
2013-11-10 12:54:00,73.4,17.8,30.01,SSW,203,6.0,6.9,12,0.00,,,0.00,meteobridge,2013-11-10 20:54:00,
2013-11-10 12:55:00,73.6,17.8,30.00,SE,135,3.8,6.9,12,0.00,,,0.00,meteobridge,2013-11-10 20:55:00,
2013-11-10 12:56:00,73.8,18.0,30.00,ESE,113,4.5,6.0,12,0.00,,,0.00,meteobridge,2013-11-10 20:56:00,
2013-11-10 12:58:00,74.5,18.5,30.00,NE,45,7.6,7.6,12,0.00,,,0.00,meteobridge,2013-11-10 20:58:00,
2013-11-10 12:59:00,76.6,20.3,30.00,South,180,6.0,7.6,12,0.00,,,0.00,meteobridge,2013-11-10 20:59:00,
2013-11-10 13:00:00,74.8,18.9,30.00,South,180,5.4,7.6,12,0.00,,,0.00,meteobridge,2013-11-10 21:00:00,
2013-11-10 13:02:00,75.0,19.0,30.00,East,90,3.1,6.0,12,0.00,,,0.00,meteobridge,2013-11-10 21:02:00,
2013-11-10 13:03:00,75.2,19.0,30.00,SE,135,6.0,6.0,12,0.00,,,0.00,meteobridge,2013-11-10 21:03:00,
2013-11-10 13:04:00,74.7,18.7,29.99,ESE,113,6.9,6.9,12,0.00,,,0.00,meteobridge,2013-11-10 21:04:00,
2013-11-10 13:05:00,74.7,18.7,29.99,ESE,113,6.9,6.9,12,0.00,,,0.00,meteobridge,2013-11-10 21:05:00,
2013-11-10 13:09:00,73.9,18.1,29.99,ENE,68,2.2,8.3,12,0.00,,,0.00,meteobridge,2013-11-10 21:09:00,
2013-11-10 13:10:00,74.1,18.3,29.99,SE,135,5.4,5.4,12,0.00,,,0.00,meteobridge,2013-11-10 21:10:00,
2013-11-10 13:11:00,74.3,18.3,29.99,ESE,113,6.0,6.0,12,0.00,,,0.00,meteobridge,2013-11-10 21:11:00,
2013-11-10 13:12:00,74.3,18.3,29.99,NE,45,5.4,6.0,12,0.00,,,0.00,meteobridge,2013-11-10 21:12:00,
2013-11-10 13:14:00,74.3,18.3,29.99,East,90,6.0,6.0,12,0.00,,,0.00,meteobridge,2013-11-10 21:14:00,
2013-11-10 13:15:00,74.3,18.3,29.99,East,90,5.4,6.0,12,0.00,,,0.00,meteobridge,2013-11-10 21:15:00,
2013-11-10 13:17:00,74.3,18.3,29.99,NE,45,5.4,5.4,12,0.00,,,0.00,meteobridge,2013-11-10 21:17:00,
2013-11-10 13:18:00,74.1,20.1,29.99,NE,45,5.4,6.9,13,0.00,,,0.00,meteobridge,2013-11-10 21:18:00,
2013-11-10 13:19:00,74.1,18.3,29.99,East,90,6.9,6.9,12,0.00,,,0.00,meteobridge,2013-11-10 21:19:00,
2013-11-10 13:20:00,73.8,18.0,29.99,NE,45,9.2,9.8,12,0.00,,,0.00,meteobridge,2013-11-10 21:20:00,
2013-11-10 13:21:00,73.8,18.0,29.99,NE,45,9.2,9.8,12,0.00,,,0.00,meteobridge,2013-11-10 21:21:00,
2013-11-10 13:22:00,73.8,18.0,29.99,NE,45,5.4,9.2,12,0.00,,,0.00,meteobridge,2013-11-10 21:22:00,
2013-11-10 13:23:00,73.9,18.1,29.99,NE,45,5.4,6.9,12,0.00,,,0.00,meteobridge,2013-11-10 21:23:00,
2013-11-10 13:24:00,73.9,18.1,29.99,NE,45,9.2,9.2,12,0.00,,,0.00,meteobridge,2013-11-10 21:24:00,
2013-11-10 13:26:00,74.3,18.3,29.99,NE,45,6.9,8.3,12,0.00,,,0.00,meteobridge,2013-11-10 21:26:00,
2013-11-10 13:28:00,74.5,18.5,29.99,North,0,6.0,7.6,12,0.00,,,0.00,meteobridge,2013-11-10 21:28:00,
2013-11-10 13:30:00,75.2,19.0,29.99,East,90,5.4,6.0,12,0.00,,,0.00,meteobridge,2013-11-10 21:30:00,
2013-11-10 13:31:00,75.4,19.2,29.99,East,90,3.8,7.6,12,0.00,,,0.00,meteobridge,2013-11-10 21:31:00,
2013-11-10 13:32:00,75.4,19.2,29.99,NE,45,4.5,7.6,12,0.00,,,0.00,meteobridge,2013-11-10 21:32:00,
2013-11-10 13:35:00,75.0,19.0,29.99,East,90,5.4,6.0,12,0.00,,,0.00,meteobridge,2013-11-10 21:35:00,
2013-11-10 13:36:00,75.0,19.0,29.99,NE,45,3.8,5.4,12,0.00,,,0.00,meteobridge,2013-11-10 21:36:00,
2013-11-10 13:38:00,75.6,19.4,29.99,East,90,4.5,4.5,12,0.00,,,0.00,meteobridge,2013-11-10 21:38:00,
2013-11-10 13:40:00,75.4,19.2,29.98,SE,135,6.9,6.9,12,0.00,,,0.00,meteobridge,2013-11-10 21:40:00,
2013-11-10 13:42:00,75.2,19.0,29.99,East,90,6.0,6.9,12,0.00,,,0.00,meteobridge,2013-11-10 21:42:00,
2013-11-10 13:43:00,75.0,19.0,29.98,NE,45,6.9,6.9,12,0.00,,,0.00,meteobridge,2013-11-10 21:43:00,
2013-11-10 13:45:00,74.8,18.9,29.99,East,90,6.9,6.9,12,0.00,,,0.00,meteobridge,2013-11-10 21:45:00,
2013-11-10 13:47:00,74.7,20.5,29.98,NE,45,5.4,6.0,13,0.00,,,0.00,meteobridge,2013-11-10 21:47:00,
2013-11-10 13:48:00,74.7,20.5,29.98,NE,45,5.4,6.0,13,0.00,,,0.00,meteobridge,2013-11-10 21:48:00,
2013-11-10 13:50:00,74.8,18.9,29.98,East,90,5.4,5.4,12,0.00,,,0.00,meteobridge,2013-11-10 21:50:00,
2013-11-10 13:51:00,74.7,18.7,29.98,East,90,6.9,7.6,12,0.00,,,0.00,meteobridge,2013-11-10 21:51:00,
2013-11-10 13:53:00,74.7,18.7,29.98,East,90,5.4,6.9,12,0.00,,,0.00,meteobridge,2013-11-10 21:53:00,
2013-11-10 13:54:00,74.5,18.5,29.98,East,90,6.0,6.0,12,0.00,,,0.00,meteobridge,2013-11-10 21:54:00,
2013-11-10 13:56:00,74.3,18.3,29.98,East,90,3.8,9.2,12,0.00,,,0.00,meteobridge,2013-11-10 21:56:00,
2013-11-10 13:58:00,74.7,20.5,29.98,East,90,4.5,4.5,13,0.00,,,0.00,meteobridge,2013-11-10 21:58:00,
2013-11-10 13:59:00,74.7,18.7,29.98,East,90,6.9,6.9,12,0.00,,,0.00,meteobridge,2013-11-10 21:59:00,
2013-11-10 14:00:00,74.5,20.5,29.98,NE,45,8.3,8.3,13,0.00,,,0.00,meteobridge,2013-11-10 22:00:00,
2013-11-10 14:01:00,74.5,18.5,29.98,NE,45,6.0,8.3,12,0.00,,,0.00,meteobridge,2013-11-10 22:01:00,
2013-11-10 14:02:00,74.5,18.5,29.98,NE,45,3.8,6.0,12,0.00,,,0.00,meteobridge,2013-11-10 22:02:00,
2013-11-10 14:03:00,74.7,18.7,29.98,North,0,5.4,6.0,12,0.00,,,0.00,meteobridge,2013-11-10 22:03:00,
2013-11-10 14:05:00,75.0,20.8,29.98,East,90,3.1,6.0,13,0.00,,,0.00,meteobridge,2013-11-10 22:05:00,
2013-11-10 14:06:00,75.0,20.8,29.98,East,90,3.1,6.0,13,0.00,,,0.00,meteobridge,2013-11-10 22:06:00,
2013-11-10 14:09:00,75.6,19.4,29.98,East,90,4.5,6.0,12,0.00,,,0.00,meteobridge,2013-11-10 22:09:00,
2013-11-10 14:11:00,75.7,19.6,29.98,NE,45,5.4,5.4,12,0.00,,,0.00,meteobridge,2013-11-10 22:11:00,
2013-11-10 14:12:00,75.7,19.6,29.98,East,90,6.9,6.9,12,0.00,,,0.00,meteobridge,2013-11-10 22:12:00,
2013-11-10 14:14:00,75.7,19.6,29.98,East,90,5.4,6.9,12,0.00,,,0.00,meteobridge,2013-11-10 22:14:00,
2013-11-10 14:15:00,75.6,19.4,29.98,East,90,3.8,6.9,12,0.00,,,0.00,meteobridge,2013-11-10 22:15:00,
2013-11-10 14:16:00,75.6,19.4,29.98,NE,45,8.3,8.3,12,0.00,,,0.00,meteobridge,2013-11-10 22:16:00,
2013-11-10 14:17:00,75.6,19.4,29.98,NE,45,8.3,8.3,12,0.00,,,0.00,meteobridge,2013-11-10 22:17:00,
2013-11-10 14:19:00,75.7,21.4,29.98,ENE,68,6.0,6.0,13,0.00,,,0.00,meteobridge,2013-11-10 22:19:00,
2013-11-10 14:20:00,75.7,21.4,29.98,ENE,68,6.0,6.0,13,0.00,,,0.00,meteobridge,2013-11-10 22:20:00,
2013-11-10 14:21:00,75.7,19.6,29.97,East,90,6.0,6.0,12,0.00,,,0.00,meteobridge,2013-11-10 22:21:00,
2013-11-10 14:22:00,75.7,19.6,29.98,East,90,6.0,6.0,12,0.00,,,0.00,meteobridge,2013-11-10 22:22:00,
2013-11-10 14:24:00,75.7,19.6,29.97,NE,45,6.9,6.9,12,0.00,,,0.00,meteobridge,2013-11-10 22:24:00,
2013-11-10 14:25:00,75.7,19.6,29.98,NNW,338,11.4,11.4,12,0.00,,,0.00,meteobridge,2013-11-10 22:25:00,
2013-11-10 14:26:00,75.7,19.6,29.97,ENE,68,7.6,11.4,12,0.00,,,0.00,meteobridge,2013-11-10 22:26:00,
2013-11-10 14:28:00,75.7,19.6,29.98,NE,45,3.8,7.6,12,0.00,,,0.00,meteobridge,2013-11-10 22:28:00,
2013-11-10 14:29:00,75.7,19.6,29.98,NE,45,5.4,5.4,12,0.00,,,0.00,meteobridge,2013-11-10 22:29:00,
2013-11-10 14:30:00,75.9,19.6,29.97,NE,45,4.5,5.4,12,0.00,,,0.00,meteobridge,2013-11-10 22:30:00,
2013-11-10 14:31:00,76.1,19.8,29.98,East,90,7.6,7.6,12,0.00,,,0.00,meteobridge,2013-11-10 22:31:00,
2013-11-10 14:32:00,75.9,19.6,29.98,East,90,5.4,7.6,12,0.00,,,0.00,meteobridge,2013-11-10 22:32:00,
2013-11-10 14:33:00,75.9,19.6,29.97,NE,45,6.9,7.6,12,0.00,,,0.00,meteobridge,2013-11-10 22:33:00,
2013-11-10 14:36:00,75.9,19.6,29.97,NE,45,6.0,6.9,12,0.00,,,0.00,meteobridge,2013-11-10 22:36:00,
2013-11-10 14:37:00,76.1,19.8,29.98,East,90,6.0,6.0,12,0.00,,,0.00,meteobridge,2013-11-10 22:37:00,
2013-11-10 14:38:00,76.1,19.8,29.98,NE,45,5.4,6.0,12,0.00,,,0.00,meteobridge,2013-11-10 22:38:00,
2013-11-10 14:39:00,76.3,19.9,29.98,NE,45,4.5,6.0,12,0.00,,,0.00,meteobridge,2013-11-10 22:39:00,
2013-11-10 14:40:00,76.3,19.9,29.98,NE,45,4.5,5.4,12,0.00,,,0.00,meteobridge,2013-11-10 22:40:00,
2013-11-10 14:43:00,76.8,20.3,29.97,NE,45,6.9,6.9,12,0.00,,,0.00,meteobridge,2013-11-10 22:43:00,
2013-11-10 14:44:00,76.6,20.3,29.97,East,90,6.0,7.6,12,0.00,,,0.00,meteobridge,2013-11-10 22:44:00,
2013-11-10 14:45:00,76.6,20.3,29.97,East,90,4.5,7.6,12,0.00,,,0.00,meteobridge,2013-11-10 22:45:00,
2013-11-10 14:46:00,76.6,20.3,29.97,East,90,4.5,7.6,12,0.00,,,0.00,meteobridge,2013-11-10 22:46:00,
2013-11-10 14:48:00,76.1,19.8,29.97,East,90,6.0,7.6,12,0.00,,,0.00,meteobridge,2013-11-10 22:48:00,
2013-11-10 14:50:00,75.9,19.6,29.98,East,90,6.0,6.9,12,0.00,,,0.00,meteobridge,2013-11-10 22:50:00,
2013-11-10 14:51:00,75.7,19.6,29.97,East,90,5.4,6.0,12,0.00,,,0.00,meteobridge,2013-11-10 22:51:00,
2013-11-10 14:52:00,75.7,21.4,29.97,NE,45,7.6,7.6,13,0.00,,,0.00,meteobridge,2013-11-10 22:52:00,
2013-11-10 14:56:00,75.4,19.2,29.97,East,90,5.4,6.9,12,0.00,,,0.00,meteobridge,2013-11-10 22:56:00,
2013-11-10 14:57:00,75.2,19.0,29.97,East,90,8.3,8.3,12,0.00,,,0.00,meteobridge,2013-11-10 22:57:00,
2013-11-10 14:58:00,75.6,21.2,29.97,NE,45,6.9,8.3,13,0.00,,,0.00,meteobridge,2013-11-10 22:58:00,
2013-11-10 15:00:00,75.6,19.4,29.97,East,90,8.3,8.3,12,0.00,,,0.00,meteobridge,2013-11-10 23:00:00,
2013-11-10 15:01:00,75.6,19.4,29.97,East,90,7.6,8.3,12,0.00,,,0.00,meteobridge,2013-11-10 23:01:00,
2013-11-10 15:02:00,75.4,21.2,29.97,East,90,9.2,9.2,13,0.00,,,0.00,meteobridge,2013-11-10 23:02:00,
2013-11-10 15:03:00,75.0,19.0,29.97,East,90,6.9,9.2,12,0.00,,,0.00,meteobridge,2013-11-10 23:03:00,
2013-11-10 15:04:00,75.2,19.0,29.97,NE,45,6.0,9.2,12,0.00,,,0.00,meteobridge,2013-11-10 23:04:00,
2013-11-10 15:05:00,75.0,19.0,29.97,East,90,6.9,7.6,12,0.00,,,0.00,meteobridge,2013-11-10 23:05:00,
2013-11-10 15:08:00,75.0,19.0,29.97,East,90,5.4,6.0,12,0.00,,,0.00,meteobridge,2013-11-10 23:08:00,
2013-11-10 15:09:00,75.2,19.0,29.97,East,90,7.6,7.6,12,0.00,,,0.00,meteobridge,2013-11-10 23:09:00,
2013-11-10 15:10:00,75.2,21.0,29.97,East,90,6.9,7.6,13,0.00,,,0.00,meteobridge,2013-11-10 23:10:00,
2013-11-10 15:12:00,74.8,18.9,29.97,SE,135,6.0,7.6,12,0.00,,,0.00,meteobridge,2013-11-10 23:12:00,
2013-11-10 15:14:00,75.0,20.8,29.97,East,90,5.4,6.9,13,0.00,,,0.00,meteobridge,2013-11-10 23:14:00,
2013-11-10 15:15:00,74.7,18.7,29.97,SE,135,9.2,9.2,12,0.00,,,0.00,meteobridge,2013-11-10 23:15:00,
2013-11-10 15:16:00,74.7,18.7,29.97,East,90,7.6,9.2,12,0.00,,,0.00,meteobridge,2013-11-10 23:16:00,
2013-11-10 15:17:00,74.7,20.5,29.97,East,90,6.0,9.2,13,0.00,,,0.00,meteobridge,2013-11-10 23:17:00,
2013-11-10 15:18:00,74.8,20.7,29.97,East,90,6.9,7.6,13,0.00,,,0.00,meteobridge,2013-11-10 23:18:00,
2013-11-10 15:20:00,74.7,20.5,29.97,East,90,6.0,7.6,13,0.00,,,0.00,meteobridge,2013-11-10 23:20:00,
2013-11-10 15:21:00,74.7,20.5,29.97,East,90,6.9,7.6,13,0.00,,,0.00,meteobridge,2013-11-10 23:21:00,
2013-11-10 15:22:00,74.7,20.5,29.97,East,90,9.2,9.2,13,0.00,,,0.00,meteobridge,2013-11-10 23:22:00,
2013-11-10 15:23:00,74.7,20.5,29.96,East,90,9.2,9.2,13,0.00,,,0.00,meteobridge,2013-11-10 23:23:00,
2013-11-10 15:25:00,74.5,20.5,29.97,East,90,7.6,9.2,13,0.00,,,0.00,meteobridge,2013-11-10 23:25:00,
2013-11-10 15:26:00,74.3,20.3,29.97,East,90,6.0,7.6,13,0.00,,,0.00,meteobridge,2013-11-10 23:26:00,
2013-11-10 15:27:00,74.3,18.3,29.97,East,90,6.9,7.6,12,0.00,,,0.00,meteobridge,2013-11-10 23:27:00,
2013-11-10 15:29:00,74.3,18.3,29.97,SE,135,8.3,8.3,12,0.00,,,0.00,meteobridge,2013-11-10 23:29:00,
2013-11-10 15:30:00,74.3,18.3,29.97,ESE,113,6.9,8.3,12,0.00,,,0.00,meteobridge,2013-11-10 23:30:00,
2013-11-10 15:31:00,74.1,20.1,29.97,ESE,113,6.9,7.6,13,0.00,,,0.00,meteobridge,2013-11-10 23:31:00,
2013-11-10 15:32:00,74.1,18.3,29.97,SE,135,6.0,6.9,12,0.00,,,0.00,meteobridge,2013-11-10 23:32:00,
2013-11-10 15:33:00,74.1,18.3,29.97,SE,135,6.0,6.9,12,0.00,,,0.00,meteobridge,2013-11-10 23:33:00,
2013-11-10 15:34:00,74.3,20.3,29.97,SE,135,5.4,6.0,13,0.00,,,0.00,meteobridge,2013-11-10 23:34:00,
2013-11-10 15:36:00,74.3,18.3,29.97,SE,135,8.3,8.3,12,0.00,,,0.00,meteobridge,2013-11-10 23:36:00,
2013-11-10 15:37:00,74.1,18.3,29.97,SE,135,9.2,9.2,12,0.00,,,0.00,meteobridge,2013-11-10 23:37:00,
2013-11-10 15:38:00,74.1,18.3,29.97,ESE,113,7.6,9.2,12,0.00,,,0.00,meteobridge,2013-11-10 23:38:00,
2013-11-10 15:39:00,74.1,18.3,29.97,ESE,113,7.6,9.2,12,0.00,,,0.00,meteobridge,2013-11-10 23:39:00,
2013-11-10 15:43:00,73.9,18.1,29.97,ESE,113,8.3,8.3,12,0.00,,,0.00,meteobridge,2013-11-10 23:43:00,
2013-11-10 15:44:00,73.8,19.8,29.97,SE,135,6.9,7.6,13,0.00,,,0.00,meteobridge,2013-11-10 23:44:00,
2013-11-10 15:45:00,73.8,19.8,29.97,SE,135,6.9,7.6,13,0.00,,,0.00,meteobridge,2013-11-10 23:45:00,
2013-11-10 15:48:00,73.9,19.9,29.97,SE,135,6.9,7.6,13,0.00,,,0.00,meteobridge,2013-11-10 23:48:00,
2013-11-10 15:49:00,73.9,19.9,29.97,SE,135,6.9,6.9,13,0.00,,,0.00,meteobridge,2013-11-10 23:49:00,
2013-11-10 15:50:00,73.9,18.1,29.96,SE,135,6.9,6.9,12,0.00,,,0.00,meteobridge,2013-11-10 23:50:00,
2013-11-10 15:51:00,73.9,18.1,29.97,ESE,113,6.9,6.9,12,0.00,,,0.00,meteobridge,2013-11-10 23:51:00,
2013-11-10 15:52:00,73.8,18.0,29.97,East,90,7.6,7.6,12,0.00,,,0.00,meteobridge,2013-11-10 23:52:00,
2013-11-10 15:54:00,73.6,17.8,29.97,East,90,7.6,7.6,12,0.00,,,0.00,meteobridge,2013-11-10 23:54:00,
2013-11-10 15:57:00,73.6,19.8,29.97,East,90,6.9,6.9,13,0.00,,,0.00,meteobridge,2013-11-10 23:57:00,
2013-11-10 15:59:00,73.8,19.8,29.97,SE,135,6.0,6.0,13,0.00,,,0.00,meteobridge,2013-11-10 23:59:00,
2013-11-10 16:00:00,73.8,19.8,29.97,SE,135,6.0,6.0,13,0.00,,,0.00,meteobridge,2013-11-11 00:00:00,
2013-11-10 16:03:00,73.6,19.8,29.97,East,90,6.0,7.6,13,0.00,,,0.00,meteobridge,2013-11-11 00:03:00,
2013-11-10 16:05:00,73.4,19.6,29.97,East,90,6.9,6.9,13,0.00,,,0.00,meteobridge,2013-11-11 00:05:00,
2013-11-10 16:06:00,73.4,19.6,29.97,ESE,113,5.4,6.9,13,0.00,,,0.00,meteobridge,2013-11-11 00:06:00,
2013-11-10 16:07:00,73.4,19.6,29.97,SE,135,5.4,6.9,13,0.00,,,0.00,meteobridge,2013-11-11 00:07:00,
2013-11-10 16:08:00,73.4,19.6,29.97,SE,135,5.4,5.4,13,0.00,,,0.00,meteobridge,2013-11-11 00:08:00,
2013-11-10 16:09:00,73.4,19.6,29.97,SE,135,5.4,5.4,13,0.00,,,0.00,meteobridge,2013-11-11 00:09:00,
2013-11-10 16:11:00,73.4,19.6,29.97,ESE,113,5.4,5.4,13,0.00,,,0.00,meteobridge,2013-11-11 00:11:00,
2013-11-10 16:12:00,73.4,19.6,29.96,SE,135,5.4,5.4,13,0.00,,,0.00,meteobridge,2013-11-11 00:12:00,
2013-11-10 16:13:00,73.4,19.6,29.96,SE,135,6.0,6.0,13,0.00,,,0.00,meteobridge,2013-11-11 00:13:00,
2013-11-10 16:15:00,73.4,19.6,29.96,SE,135,4.5,6.0,13,0.00,,,0.00,meteobridge,2013-11-11 00:15:00,
2013-11-10 16:17:00,73.4,19.6,29.97,SE,135,3.8,4.5,13,0.00,,,0.00,meteobridge,2013-11-11 00:17:00,
2013-11-10 16:18:00,73.2,19.4,29.96,SE,135,4.5,4.5,13,0.00,,,0.00,meteobridge,2013-11-11 00:18:00,
2013-11-10 16:19:00,73.2,19.4,29.97,SE,135,4.5,4.5,13,0.00,,,0.00,meteobridge,2013-11-11 00:19:00,
2013-11-10 16:21:00,73.0,19.2,29.97,SE,135,4.5,5.4,13,0.00,,,0.00,meteobridge,2013-11-11 00:21:00,
2013-11-10 16:22:00,73.0,19.2,29.97,SE,135,4.5,5.4,13,0.00,,,0.00,meteobridge,2013-11-11 00:22:00,
2013-11-10 16:24:00,72.7,20.7,29.97,SE,135,4.5,5.4,14,0.00,,,0.00,meteobridge,2013-11-11 00:24:00,
2013-11-10 16:25:00,72.5,20.7,29.96,SE,135,4.5,5.4,14,0.00,,,0.00,meteobridge,2013-11-11 00:25:00,
2013-11-10 16:26:00,72.5,20.7,29.96,SE,135,3.8,4.5,14,0.00,,,0.00,meteobridge,2013-11-11 00:26:00,
2013-11-10 16:27:00,72.5,20.7,29.96,SE,135,4.5,4.5,14,0.00,,,0.00,meteobridge,2013-11-11 00:27:00,
2013-11-10 16:29:00,72.3,20.5,29.96,SE,135,4.5,4.5,14,0.00,,,0.00,meteobridge,2013-11-11 00:29:00,
2013-11-10 16:30:00,72.1,20.3,29.97,SE,135,4.5,4.5,14,0.00,,,0.00,meteobridge,2013-11-11 00:30:00,
2013-11-10 16:31:00,72.0,20.1,29.97,SE,135,4.5,4.5,14,0.00,,,0.00,meteobridge,2013-11-11 00:31:00,
2013-11-10 16:32:00,72.0,20.1,29.97,SE,135,3.8,4.5,14,0.00,,,0.00,meteobridge,2013-11-11 00:32:00,
2013-11-10 16:34:00,71.6,19.9,29.97,SE,135,4.5,4.5,14,0.00,,,0.00,meteobridge,2013-11-11 00:34:00,
2013-11-10 16:35:00,71.4,19.8,29.97,SE,135,4.5,4.5,14,0.00,,,0.00,meteobridge,2013-11-11 00:35:00,
2013-11-10 16:36:00,71.2,19.6,29.97,SE,135,4.5,4.5,14,0.00,,,0.00,meteobridge,2013-11-11 00:36:00,
2013-11-10 16:37:00,71.1,19.4,29.97,SE,135,4.5,4.5,14,0.00,,,0.00,meteobridge,2013-11-11 00:37:00,
2013-11-10 16:40:00,70.5,19.0,29.97,SE,135,4.5,4.5,14,0.00,,,0.00,meteobridge,2013-11-11 00:40:00,
2013-11-10 16:41:00,70.3,18.9,29.97,SE,135,3.8,4.5,14,0.00,,,0.00,meteobridge,2013-11-11 00:41:00,
2013-11-10 16:42:00,70.3,18.9,29.97,SE,135,3.8,4.5,14,0.00,,,0.00,meteobridge,2013-11-11 00:42:00,
2013-11-10 16:43:00,70.0,18.5,29.97,SE,135,3.8,4.5,14,0.00,,,0.00,meteobridge,2013-11-11 00:43:00,
2013-11-10 16:46:00,69.3,18.0,29.97,East,90,3.8,3.8,14,0.00,,,0.00,meteobridge,2013-11-11 00:46:00,
2013-11-10 16:47:00,68.9,19.4,29.97,SE,135,3.8,3.8,15,0.00,,,0.00,meteobridge,2013-11-11 00:47:00,
2013-11-10 16:48:00,68.7,19.2,29.97,SE,135,3.8,3.8,15,0.00,,,0.00,meteobridge,2013-11-11 00:48:00,
2013-11-10 16:49:00,68.5,19.0,29.97,SE,135,3.8,3.8,15,0.00,,,0.00,meteobridge,2013-11-11 00:49:00,
2013-11-10 16:52:00,68.0,18.7,29.97,SE,135,3.1,3.8,15,0.00,,,0.00,meteobridge,2013-11-11 00:52:00,
2013-11-10 16:53:00,67.8,18.5,29.97,SE,135,3.1,3.8,15,0.00,,,0.00,meteobridge,2013-11-11 00:53:00,
2013-11-10 16:54:00,67.8,18.5,29.97,SE,135,3.1,3.8,15,0.00,,,0.00,meteobridge,2013-11-11 00:54:00,
2013-11-10 16:55:00,67.5,18.1,29.97,SE,135,3.1,3.1,15,0.00,,,0.00,meteobridge,2013-11-11 00:55:00,
2013-11-10 16:57:00,67.1,18.0,29.97,SE,135,3.1,3.1,15,0.00,,,0.00,meteobridge,2013-11-11 00:57:00,
2013-11-10 16:59:00,66.9,17.8,29.97,SE,135,2.2,3.1,15,0.00,,,0.00,meteobridge,2013-11-11 00:59:00,
2013-11-10 17:00:00,66.7,17.6,29.97,SE,135,2.2,3.1,15,0.00,,,0.00,meteobridge,2013-11-11 01:00:00,
2013-11-10 17:04:00,66.2,17.2,29.97,SE,135,2.2,2.2,15,0.00,,,0.00,meteobridge,2013-11-11 01:04:00,
2013-11-10 17:05:00,66.0,17.1,29.97,SE,135,2.2,2.2,15,0.00,,,0.00,meteobridge,2013-11-11 01:05:00,
2013-11-10 17:06:00,66.0,17.1,29.97,SE,135,2.2,2.2,15,0.00,,,0.00,meteobridge,2013-11-11 01:06:00,
2013-11-10 17:08:00,65.8,16.9,29.97,SE,135,2.2,2.2,15,0.00,,,0.00,meteobridge,2013-11-11 01:08:00,
2013-11-10 17:09:00,65.7,16.7,29.97,SE,135,1.6,2.2,15,0.00,,,0.00,meteobridge,2013-11-11 01:09:00,
2013-11-10 17:11:00,65.5,16.5,29.97,SE,135,1.6,1.6,15,0.00,,,0.00,meteobridge,2013-11-11 01:11:00,
2013-11-10 17:13:00,65.3,16.5,29.97,SE,135,2.2,2.2,15,0.00,,,0.00,meteobridge,2013-11-11 01:13:00,
2013-11-10 17:14:00,64.9,17.6,29.97,SE,135,1.6,2.2,16,0.00,,,0.00,meteobridge,2013-11-11 01:14:00,
2013-11-10 17:16:00,64.6,17.4,29.97,SE,135,1.6,1.6,16,0.00,,,0.00,meteobridge,2013-11-11 01:16:00,
2013-11-10 17:17:00,64.6,17.4,29.97,SE,135,1.6,1.6,16,0.00,,,0.00,meteobridge,2013-11-11 01:17:00,
2013-11-10 17:19:00,64.4,17.2,29.97,SE,135,1.6,1.6,16,0.00,,,0.00,meteobridge,2013-11-11 01:19:00,
2013-11-10 17:20:00,64.2,17.1,29.97,SE,135,1.6,1.6,16,0.00,,,0.00,meteobridge,2013-11-11 01:20:00,
2013-11-10 17:21:00,64.2,17.1,29.97,SE,135,1.6,1.6,16,0.00,,,0.00,meteobridge,2013-11-11 01:21:00,
2013-11-10 17:23:00,64.0,16.9,29.97,SE,135,1.6,1.6,16,0.00,,,0.00,meteobridge,2013-11-11 01:23:00,
2013-11-10 17:24:00,64.0,16.9,29.98,SE,135,1.6,1.6,16,0.00,,,0.00,meteobridge,2013-11-11 01:24:00,
2013-11-10 17:25:00,64.0,16.9,29.97,SE,135,1.6,1.6,16,0.00,,,0.00,meteobridge,2013-11-11 01:25:00,
2013-11-10 17:26:00,64.0,16.9,29.98,SE,135,1.6,1.6,16,0.00,,,0.00,meteobridge,2013-11-11 01:26:00,
2013-11-10 17:27:00,64.0,16.9,29.97,SE,135,1.6,1.6,16,0.00,,,0.00,meteobridge,2013-11-11 01:27:00,
2013-11-10 17:28:00,64.0,16.9,29.98,SE,135,1.6,1.6,16,0.00,,,0.00,meteobridge,2013-11-11 01:28:00,
2013-11-10 17:30:00,63.3,17.8,29.97,SW,225,2.2,2.2,17,0.00,,,0.00,meteobridge,2013-11-11 01:30:00,
2013-11-10 17:31:00,63.3,17.8,29.97,SW,225,2.2,2.2,17,0.00,,,0.00,meteobridge,2013-11-11 01:31:00,
2013-11-10 17:32:00,63.1,17.6,29.98,SW,225,2.2,2.2,17,0.00,,,0.00,meteobridge,2013-11-11 01:32:00,
2013-11-10 17:33:00,63.0,17.4,29.98,SW,225,2.2,2.2,17,0.00,,,0.00,meteobridge,2013-11-11 01:33:00,
2013-11-10 17:35:00,62.8,17.2,29.98,SW,225,1.6,2.2,17,0.00,,,0.00,meteobridge,2013-11-11 01:35:00,
2013-11-10 17:36:00,62.8,17.2,29.98,SW,225,1.6,1.6,17,0.00,,,0.00,meteobridge,2013-11-11 01:36:00,
2013-11-10 17:39:00,62.2,16.9,29.98,SW,225,1.6,1.6,17,0.00,,,0.00,meteobridge,2013-11-11 01:39:00,
2013-11-10 17:40:00,62.2,16.9,29.98,SW,225,1.6,1.6,17,0.00,,,0.00,meteobridge,2013-11-11 01:40:00,
2013-11-10 17:41:00,61.9,16.5,29.98,SW,225,2.2,2.2,17,0.00,,,0.00,meteobridge,2013-11-11 01:41:00,
2013-11-10 17:42:00,61.9,16.5,29.98,SW,225,2.2,2.2,17,0.00,,,0.00,meteobridge,2013-11-11 01:42:00,
2013-11-10 17:44:00,61.7,15.1,29.98,West,270,2.2,2.2,16,0.00,,,0.00,meteobridge,2013-11-11 01:44:00,
2013-11-10 17:46:00,61.5,14.9,29.98,North,0,3.1,3.1,16,0.00,,,0.00,meteobridge,2013-11-11 01:46:00,
2013-11-10 17:47:00,60.6,16.9,29.98,NW,315,4.5,4.5,18,0.00,,,0.00,meteobridge,2013-11-11 01:47:00,
2013-11-10 17:49:00,60.1,16.3,29.98,NW,315,3.8,4.5,18,0.00,,,0.00,meteobridge,2013-11-11 01:49:00,
2013-11-10 17:50:00,59.7,16.2,29.98,NW,315,3.1,3.8,18,0.00,,,0.00,meteobridge,2013-11-11 01:50:00,
2013-11-10 17:53:00,59.2,15.6,29.98,NW,315,0.7,3.1,18,0.00,,,0.00,meteobridge,2013-11-11 01:53:00,
2013-11-10 17:54:00,58.8,15.4,29.98,NW,315,0.7,0.7,18,0.00,,,0.00,meteobridge,2013-11-11 01:54:00,
2013-11-10 17:55:00,58.8,15.4,29.98,NW,315,0.7,0.7,18,0.00,,,0.00,meteobridge,2013-11-11 01:55:00,
2013-11-10 17:59:00,58.3,14.9,29.98,NW,315,0.0,0.7,18,0.00,,,0.00,meteobridge,2013-11-11 01:59:00,
2013-11-10 18:00:00,57.9,14.7,29.98,NW,315,0.0,0.0,18,0.00,,,0.00,meteobridge,2013-11-11 02:00:00,
2013-11-10 18:01:00,57.7,14.5,29.99,NW,315,0.0,0.0,18,0.00,,,0.00,meteobridge,2013-11-11 02:01:00,
2013-11-10 18:02:00,57.7,14.5,29.99,NW,315,0.0,0.0,18,0.00,,,0.00,meteobridge,2013-11-11 02:02:00,
2013-11-10 18:04:00,57.2,15.3,29.99,NW,315,1.6,1.6,19,0.00,,,0.00,meteobridge,2013-11-11 02:04:00,
2013-11-10 18:05:00,57.2,15.3,29.99,NW,315,1.6,1.6,19,0.00,,,0.00,meteobridge,2013-11-11 02:05:00,
2013-11-10 18:07:00,57.0,16.3,29.99,NW,315,1.6,1.6,20,0.00,,,0.00,meteobridge,2013-11-11 02:07:00,
2013-11-10 18:08:00,57.0,15.1,29.99,NW,315,1.6,1.6,19,0.00,,,0.00,meteobridge,2013-11-11 02:08:00,
2013-11-10 18:09:00,57.0,15.1,29.99,NW,315,1.6,1.6,19,0.00,,,0.00,meteobridge,2013-11-11 02:09:00,
2013-11-10 18:10:00,57.0,15.1,29.99,West,270,2.2,2.2,19,0.00,,,0.00,meteobridge,2013-11-11 02:10:00,
2013-11-10 18:14:00,55.9,13.1,29.99,SW,225,6.0,6.0,18,0.00,,,0.00,meteobridge,2013-11-11 02:14:00,
2013-11-10 18:15:00,55.8,11.7,29.99,West,270,5.4,6.0,17,0.00,,,0.00,meteobridge,2013-11-11 02:15:00,
2013-11-10 18:16:00,55.4,11.3,29.99,SW,225,4.5,6.0,17,0.00,,,0.00,meteobridge,2013-11-11 02:16:00,
2013-11-10 18:18:00,54.3,10.4,29.99,West,270,5.4,5.4,17,0.00,,,0.00,meteobridge,2013-11-11 02:18:00,
2013-11-10 18:20:00,54.3,11.7,29.99,West,270,3.8,5.4,18,0.00,,,0.00,meteobridge,2013-11-11 02:20:00,
2013-11-10 18:21:00,54.5,11.8,29.99,West,270,5.4,5.4,18,0.00,,,0.00,meteobridge,2013-11-11 02:21:00,
2013-11-10 18:22:00,54.5,11.8,29.99,West,270,5.4,5.4,18,0.00,,,0.00,meteobridge,2013-11-11 02:22:00,
2013-11-10 18:25:00,54.0,10.0,29.99,West,270,5.4,5.4,17,0.00,,,0.00,meteobridge,2013-11-11 02:25:00,
2013-11-10 18:26:00,54.0,11.5,29.99,WNW,293,5.4,5.4,18,0.00,,,0.00,meteobridge,2013-11-11 02:26:00,
2013-11-10 18:27:00,54.0,11.5,29.99,NW,315,4.5,5.4,18,0.00,,,0.00,meteobridge,2013-11-11 02:27:00,
2013-11-10 18:28:00,54.0,11.5,29.99,West,270,3.1,5.4,18,0.00,,,0.00,meteobridge,2013-11-11 02:28:00,
2013-11-10 18:31:00,54.0,11.5,29.99,NW,315,3.1,3.1,18,0.00,,,0.00,meteobridge,2013-11-11 02:31:00,
2013-11-10 18:32:00,53.8,11.3,29.99,NW,315,3.1,3.1,18,0.00,,,0.00,meteobridge,2013-11-11 02:32:00,
2013-11-10 18:33:00,53.8,11.3,29.99,NW,315,3.1,3.1,18,0.00,,,0.00,meteobridge,2013-11-11 02:33:00,
2013-11-10 18:38:00,53.6,11.1,29.99,West,270,2.2,3.1,18,0.00,,,0.00,meteobridge,2013-11-11 02:38:00,
2013-11-10 18:39:00,53.4,10.9,29.99,West,270,3.1,3.1,18,0.00,,,0.00,meteobridge,2013-11-11 02:39:00,
2013-11-10 18:40:00,53.2,10.8,29.99,West,270,3.1,3.1,18,0.00,,,0.00,meteobridge,2013-11-11 02:40:00,
2013-11-10 18:44:00,52.3,10.0,29.99,West,270,3.1,3.8,18,0.00,,,0.00,meteobridge,2013-11-11 02:44:00,
2013-11-10 18:45:00,52.2,9.9,29.99,WNW,293,2.2,3.1,18,0.00,,,0.00,meteobridge,2013-11-11 02:45:00,
2013-11-10 18:46:00,52.2,9.9,29.99,WNW,293,2.2,3.1,18,0.00,,,0.00,meteobridge,2013-11-11 02:46:00,
2013-11-10 18:47:00,52.2,9.9,29.99,NW,315,2.2,3.1,18,0.00,,,0.00,meteobridge,2013-11-11 02:47:00,
2013-11-10 18:49:00,51.8,10.8,29.99,NW,315,1.6,2.2,19,0.00,,,0.00,meteobridge,2013-11-11 02:49:00,
2013-11-10 18:51:00,51.6,11.8,29.99,NW,315,2.2,2.2,20,0.00,,,0.00,meteobridge,2013-11-11 02:51:00,
2013-11-10 18:52:00,51.8,12.0,30.00,NW,315,3.1,3.1,20,0.00,,,0.00,meteobridge,2013-11-11 02:52:00,
2013-11-10 18:55:00,51.6,11.8,29.99,West,270,2.2,2.2,20,0.00,,,0.00,meteobridge,2013-11-11 02:55:00,
2013-11-10 18:56:00,51.6,11.8,29.99,West,270,2.2,2.2,20,0.00,,,0.00,meteobridge,2013-11-11 02:56:00,
2013-11-10 18:57:00,51.4,11.7,29.99,NW,315,2.2,3.1,20,0.00,,,0.00,meteobridge,2013-11-11 02:57:00,
2013-11-10 18:59:00,51.4,11.7,30.00,WNW,293,2.2,2.2,20,0.00,,,0.00,meteobridge,2013-11-11 02:59:00,
2013-11-10 19:00:00,51.3,11.5,29.99,NW,315,2.2,2.2,20,0.00,,,0.00,meteobridge,2013-11-11 03:00:00,
2013-11-10 19:01:00,51.3,11.5,30.00,NW,315,2.2,2.2,20,0.00,,,0.00,meteobridge,2013-11-11 03:01:00,
2013-11-10 19:02:00,51.3,11.5,30.00,NW,315,2.2,2.2,20,0.00,,,0.00,meteobridge,2013-11-11 03:02:00,
2013-11-10 19:04:00,51.1,11.3,29.99,NW,315,2.2,2.2,20,0.00,,,0.00,meteobridge,2013-11-11 03:04:00,
2013-11-10 19:05:00,50.9,11.3,29.99,West,270,2.2,2.2,20,0.00,,,0.00,meteobridge,2013-11-11 03:05:00,
2013-11-10 19:06:00,50.7,11.1,29.99,NW,315,1.6,2.2,20,0.00,,,0.00,meteobridge,2013-11-11 03:06:00,
2013-11-10 19:07:00,50.7,11.1,30.00,NW,315,1.6,2.2,20,0.00,,,0.00,meteobridge,2013-11-11 03:07:00,
2013-11-10 19:09:00,50.5,12.0,29.99,NW,315,2.2,2.2,21,0.00,,,0.00,meteobridge,2013-11-11 03:09:00,
2013-11-10 19:10:00,50.4,11.8,29.99,North,0,1.6,2.2,21,0.00,,,0.00,meteobridge,2013-11-11 03:10:00,
2013-11-10 19:11:00,50.2,11.7,29.99,North,0,1.6,2.2,21,0.00,,,0.00,meteobridge,2013-11-11 03:11:00,
2013-11-10 19:13:00,50.0,10.4,29.99,North,0,0.7,1.6,20,0.00,,,0.00,meteobridge,2013-11-11 03:13:00,
2013-11-10 19:14:00,49.8,11.5,29.99,West,270,3.1,3.1,21,0.00,,,0.00,meteobridge,2013-11-11 03:14:00,
2013-11-10 19:16:00,49.3,9.9,29.99,SW,225,4.5,5.4,20,0.00,,,0.00,meteobridge,2013-11-11 03:16:00,
2013-11-10 19:17:00,49.3,9.9,29.99,SW,225,4.5,5.4,20,0.00,,,0.00,meteobridge,2013-11-11 03:17:00,
2013-11-10 19:19:00,48.7,9.5,29.99,West,270,3.8,4.5,20,0.00,,,0.00,meteobridge,2013-11-11 03:19:00,
2013-11-10 19:20:00,48.7,10.6,30.00,West,270,5.4,5.4,21,0.00,,,0.00,meteobridge,2013-11-11 03:20:00,
2013-11-10 19:22:00,48.6,9.3,29.99,West,270,4.5,5.4,20,0.00,,,0.00,meteobridge,2013-11-11 03:22:00,
2013-11-10 19:24:00,48.4,9.1,29.99,West,270,4.5,5.4,20,0.00,,,0.00,meteobridge,2013-11-11 03:24:00,
2013-11-10 19:25:00,48.4,9.1,29.99,West,270,3.8,5.4,20,0.00,,,0.00,meteobridge,2013-11-11 03:25:00,
2013-11-10 19:26:00,48.4,9.1,29.99,West,270,3.8,4.5,20,0.00,,,0.00,meteobridge,2013-11-11 03:26:00,
2013-11-10 19:27:00,48.6,9.3,30.00,West,270,5.4,5.4,20,0.00,,,0.00,meteobridge,2013-11-11 03:27:00,
2013-11-10 19:28:00,48.6,9.3,30.00,West,270,4.5,5.4,20,0.00,,,0.00,meteobridge,2013-11-11 03:28:00,
2013-11-10 19:29:00,48.4,8.1,29.99,West,270,4.5,5.4,19,0.00,,,0.00,meteobridge,2013-11-11 03:29:00,
2013-11-10 19:30:00,48.4,8.1,30.00,West,270,3.8,4.5,19,0.00,,,0.00,meteobridge,2013-11-11 03:30:00,
2013-11-10 19:31:00,48.4,8.1,29.99,West,270,3.1,4.5,19,0.00,,,0.00,meteobridge,2013-11-11 03:31:00,
2013-11-10 19:32:00,48.2,7.9,29.99,West,270,3.1,4.5,19,0.00,,,0.00,meteobridge,2013-11-11 03:32:00,
2013-11-10 19:33:00,48.2,10.0,29.99,NW,315,3.1,3.1,21,0.00,,,0.00,meteobridge,2013-11-11 03:33:00,
2013-11-10 19:35:00,48.6,10.4,29.99,West,270,3.1,3.1,21,0.00,,,0.00,meteobridge,2013-11-11 03:35:00,
2013-11-10 19:37:00,48.4,9.1,29.99,West,270,6.0,6.0,20,0.00,,,0.00,meteobridge,2013-11-11 03:37:00,
2013-11-10 19:38:00,48.2,9.0,29.99,West,270,6.0,6.0,20,0.00,,,0.00,meteobridge,2013-11-11 03:38:00,
2013-11-10 19:39:00,48.0,8.8,30.00,West,270,5.4,6.0,20,0.00,,,0.00,meteobridge,2013-11-11 03:39:00,
2013-11-10 19:41:00,48.0,8.8,30.00,West,270,5.4,5.4,20,0.00,,,0.00,meteobridge,2013-11-11 03:41:00,
2013-11-10 19:42:00,48.0,8.8,29.99,West,270,6.0,6.0,20,0.00,,,0.00,meteobridge,2013-11-11 03:42:00,
2013-11-10 19:44:00,48.0,9.9,29.99,WSW,248,7.6,7.6,21,0.00,,,0.00,meteobridge,2013-11-11 03:44:00,
2013-11-10 19:46:00,48.0,9.9,30.00,West,270,6.0,7.6,21,0.00,,,0.00,meteobridge,2013-11-11 03:46:00,
2013-11-10 19:48:00,48.4,10.2,30.00,West,270,6.0,6.0,21,0.00,,,0.00,meteobridge,2013-11-11 03:48:00,
2013-11-10 19:50:00,48.6,9.3,30.00,West,270,6.0,6.0,20,0.00,,,0.00,meteobridge,2013-11-11 03:50:00,
2013-11-10 19:51:00,48.6,9.3,29.99,West,270,6.9,6.9,20,0.00,,,0.00,meteobridge,2013-11-11 03:51:00,
2013-11-10 19:52:00,48.6,9.3,30.00,West,270,6.0,6.9,20,0.00,,,0.00,meteobridge,2013-11-11 03:52:00,
2013-11-10 19:53:00,48.6,9.3,29.99,West,270,6.9,6.9,20,0.00,,,0.00,meteobridge,2013-11-11 03:53:00,
2013-11-10 19:56:00,48.4,9.1,29.99,West,270,6.9,6.9,20,0.00,,,0.00,meteobridge,2013-11-11 03:56:00,
2013-11-10 19:57:00,48.6,9.3,30.00,West,270,7.6,7.6,20,0.00,,,0.00,meteobridge,2013-11-11 03:57:00,
2013-11-10 19:58:00,48.6,9.3,30.00,West,270,7.6,7.6,20,0.00,,,0.00,meteobridge,2013-11-11 03:58:00,
2013-11-10 19:59:00,48.4,9.1,30.00,West,270,6.9,7.6,20,0.00,,,0.00,meteobridge,2013-11-11 03:59:00,
2013-11-10 20:04:00,48.4,10.2,29.99,West,270,8.3,8.3,21,0.00,,,0.00,meteobridge,2013-11-11 04:04:00,
2013-11-10 20:05:00,48.4,10.2,30.00,West,270,7.6,8.3,21,0.00,,,0.00,meteobridge,2013-11-11 04:05:00,
2013-11-10 20:06:00,48.4,10.2,30.00,West,270,7.6,7.6,21,0.00,,,0.00,meteobridge,2013-11-11 04:06:00,
2013-11-10 20:09:00,48.2,10.0,30.00,West,270,7.6,9.2,21,0.00,,,0.00,meteobridge,2013-11-11 04:09:00,
2013-11-10 20:11:00,48.2,10.0,30.00,West,270,7.6,7.6,21,0.00,,,0.00,meteobridge,2013-11-11 04:11:00,
2013-11-10 20:12:00,48.2,11.1,30.00,West,270,7.6,7.6,22,0.00,,,0.00,meteobridge,2013-11-11 04:12:00,
2013-11-10 20:15:00,47.8,10.8,30.00,West,270,7.6,7.6,22,0.00,,,0.00,meteobridge,2013-11-11 04:15:00,
2013-11-10 20:17:00,46.8,9.9,30.00,West,270,6.0,7.6,22,0.00,,,0.00,meteobridge,2013-11-11 04:17:00,
2013-11-10 20:18:00,47.5,10.6,30.00,West,270,6.0,7.6,22,0.00,,,0.00,meteobridge,2013-11-11 04:18:00,
2013-11-10 20:19:00,47.3,9.3,30.00,West,270,5.4,6.0,21,0.00,,,0.00,meteobridge,2013-11-11 04:19:00,
2013-11-10 20:20:00,47.3,9.3,30.00,West,270,5.4,6.0,21,0.00,,,0.00,meteobridge,2013-11-11 04:20:00,
2013-11-10 20:23:00,47.1,9.1,30.00,West,270,5.4,5.4,21,0.00,,,0.00,meteobridge,2013-11-11 04:23:00,
2013-11-10 20:24:00,46.9,9.0,29.99,West,270,5.4,5.4,21,0.00,,,0.00,meteobridge,2013-11-11 04:24:00,
2013-11-10 20:25:00,46.9,10.0,30.00,West,270,5.4,5.4,22,0.00,,,0.00,meteobridge,2013-11-11 04:25:00,
2013-11-10 20:26:00,46.9,10.0,30.00,West,270,4.5,5.4,22,0.00,,,0.00,meteobridge,2013-11-11 04:26:00,
2013-11-10 20:27:00,46.8,9.9,30.00,West,270,5.4,5.4,22,0.00,,,0.00,meteobridge,2013-11-11 04:27:00,
2013-11-10 20:28:00,46.8,9.9,30.00,West,270,6.0,6.0,22,0.00,,,0.00,meteobridge,2013-11-11 04:28:00,
2013-11-10 20:31:00,46.8,10.9,30.00,West,270,6.9,7.6,23,0.00,,,0.00,meteobridge,2013-11-11 04:31:00,
2013-11-10 20:32:00,46.8,10.9,30.00,West,270,6.9,7.6,23,0.00,,,0.00,meteobridge,2013-11-11 04:32:00,
2013-11-10 20:33:00,46.8,10.9,30.00,West,270,7.6,7.6,23,0.00,,,0.00,meteobridge,2013-11-11 04:33:00,
2013-11-10 20:36:00,46.8,10.9,30.00,West,270,8.3,8.3,23,0.00,,,0.00,meteobridge,2013-11-11 04:36:00,
2013-11-10 20:37:00,46.8,10.9,30.00,West,270,9.2,9.2,23,0.00,,,0.00,meteobridge,2013-11-11 04:37:00,
2013-11-10 20:38:00,46.9,11.1,30.00,West,270,8.3,9.2,23,0.00,,,0.00,meteobridge,2013-11-11 04:38:00,
2013-11-10 20:39:00,46.9,11.1,30.00,West,270,6.9,9.2,23,0.00,,,0.00,meteobridge,2013-11-11 04:39:00,
2013-11-10 20:41:00,46.9,11.1,30.00,WSW,248,6.9,7.6,23,0.00,,,0.00,meteobridge,2013-11-11 04:41:00,
2013-11-10 20:43:00,46.8,10.9,30.00,West,270,6.0,7.6,23,0.00,,,0.00,meteobridge,2013-11-11 04:43:00,
2013-11-10 20:44:00,46.8,10.9,30.00,West,270,6.0,6.9,23,0.00,,,0.00,meteobridge,2013-11-11 04:44:00,
2013-11-10 20:47:00,46.6,10.8,30.00,West,270,6.9,6.9,23,0.00,,,0.00,meteobridge,2013-11-11 04:47:00,
2013-11-10 20:48:00,46.6,10.8,30.00,West,270,6.9,6.9,23,0.00,,,0.00,meteobridge,2013-11-11 04:48:00,
2013-11-10 20:49:00,46.6,10.8,30.00,West,270,6.9,6.9,23,0.00,,,0.00,meteobridge,2013-11-11 04:49:00,
2013-11-10 20:50:00,46.6,10.8,30.00,West,270,6.9,6.9,23,0.00,,,0.00,meteobridge,2013-11-11 04:50:00,
2013-11-10 20:51:00,46.6,10.8,30.00,West,270,8.3,8.3,23,0.00,,,0.00,meteobridge,2013-11-11 04:51:00,
2013-11-10 20:53:00,46.6,10.8,30.00,West,270,8.3,8.3,23,0.00,,,0.00,meteobridge,2013-11-11 04:53:00,
2013-11-10 20:54:00,46.4,10.6,30.00,West,270,7.6,8.3,23,0.00,,,0.00,meteobridge,2013-11-11 04:54:00,
2013-11-10 20:55:00,46.4,10.6,30.00,West,270,9.2,9.2,23,0.00,,,0.00,meteobridge,2013-11-11 04:55:00,
2013-11-10 20:56:00,46.6,10.8,30.00,West,270,7.6,9.2,23,0.00,,,0.00,meteobridge,2013-11-11 04:56:00,
2013-11-10 20:58:00,46.6,10.8,30.00,West,270,6.9,7.6,23,0.00,,,0.00,meteobridge,2013-11-11 04:58:00,
2013-11-10 20:59:00,46.4,10.6,30.01,West,270,7.6,7.6,23,0.00,,,0.00,meteobridge,2013-11-11 04:59:00,
2013-11-10 21:00:00,46.6,10.8,30.00,West,270,7.6,7.6,23,0.00,,,0.00,meteobridge,2013-11-11 05:00:00,
2013-11-10 21:01:00,46.4,10.6,30.00,West,270,7.6,7.6,23,0.00,,,0.00,meteobridge,2013-11-11 05:01:00,
2013-11-10 21:02:00,46.6,10.8,30.00,West,270,7.6,7.6,23,0.00,,,0.00,meteobridge,2013-11-11 05:02:00,
2013-11-10 21:06:00,46.4,10.6,30.00,West,270,6.9,6.9,23,0.00,,,0.00,meteobridge,2013-11-11 05:06:00,
2013-11-10 21:07:00,46.4,10.6,30.00,West,270,6.9,6.9,23,0.00,,,0.00,meteobridge,2013-11-11 05:07:00,
2013-11-10 21:08:00,46.4,10.6,30.00,West,270,6.0,6.9,23,0.00,,,0.00,meteobridge,2013-11-11 05:08:00,
2013-11-10 21:11:00,46.4,10.6,30.00,West,270,5.4,6.0,23,0.00,,,0.00,meteobridge,2013-11-11 05:11:00,
2013-11-10 21:12:00,46.2,10.4,30.00,West,270,6.0,6.0,23,0.00,,,0.00,meteobridge,2013-11-11 05:12:00,
2013-11-10 21:13:00,46.2,10.4,30.00,West,270,5.4,6.0,23,0.00,,,0.00,meteobridge,2013-11-11 05:13:00,
2013-11-10 21:14:00,46.0,10.2,30.00,West,270,5.4,5.4,23,0.00,,,0.00,meteobridge,2013-11-11 05:14:00,
2013-11-10 21:16:00,45.9,10.2,30.00,West,270,6.9,6.9,23,0.00,,,0.00,meteobridge,2013-11-11 05:16:00,
2013-11-10 21:17:00,45.9,10.2,30.00,West,270,6.9,6.9,23,0.00,,,0.00,meteobridge,2013-11-11 05:17:00,
2013-11-10 21:18:00,45.7,10.0,30.00,West,270,6.9,6.9,23,0.00,,,0.00,meteobridge,2013-11-11 05:18:00,
2013-11-10 21:20:00,45.7,10.9,30.01,West,270,6.0,7.6,24,0.00,,,0.00,meteobridge,2013-11-11 05:20:00,
2013-11-10 21:22:00,45.7,10.9,30.00,West,270,6.0,7.6,24,0.00,,,0.00,meteobridge,2013-11-11 05:22:00,
2013-11-10 21:23:00,45.7,10.9,30.00,West,270,6.0,6.0,24,0.00,,,0.00,meteobridge,2013-11-11 05:23:00,
2013-11-10 21:25:00,45.7,10.9,30.00,West,270,6.0,6.0,24,0.00,,,0.00,meteobridge,2013-11-11 05:25:00,
2013-11-10 21:27:00,45.7,10.9,30.01,West,270,7.6,7.6,24,0.00,,,0.00,meteobridge,2013-11-11 05:27:00,
2013-11-10 21:28:00,45.7,10.9,30.00,West,270,6.9,7.6,24,0.00,,,0.00,meteobridge,2013-11-11 05:28:00,
2013-11-10 21:29:00,45.7,10.9,30.01,West,270,6.9,6.9,24,0.00,,,0.00,meteobridge,2013-11-11 05:29:00,
2013-11-10 21:30:00,45.7,10.9,30.01,West,270,6.9,6.9,24,0.00,,,0.00,meteobridge,2013-11-11 05:30:00,
2013-11-10 21:31:00,45.7,10.9,30.01,West,270,6.9,6.9,24,0.00,,,0.00,meteobridge,2013-11-11 05:31:00,
2013-11-10 21:32:00,45.7,10.9,30.00,West,270,6.9,6.9,24,0.00,,,0.00,meteobridge,2013-11-11 05:32:00,
2013-11-10 21:34:00,45.7,10.9,30.01,West,270,6.9,6.9,24,0.00,,,0.00,meteobridge,2013-11-11 05:34:00,
2013-11-10 21:35:00,45.7,10.9,30.00,West,270,6.9,6.9,24,0.00,,,0.00,meteobridge,2013-11-11 05:35:00,
2013-11-10 21:36:00,45.7,10.9,30.01,West,270,6.9,6.9,24,0.00,,,0.00,meteobridge,2013-11-11 05:36:00,
2013-11-10 21:37:00,45.7,10.9,30.00,West,270,6.9,-999.0,24,0.00,,,0.00,meteobridge,2013-11-11 05:37:00,
2013-11-10 21:40:00,-999.0,-99.9,30.00,North,-999,-999.0,-999.0,-999,0.00,,,0.00,meteobridge,2013-11-11 05:40:00,
2013-11-10 21:42:00,-999.0,-99.9,30.00,North,-999,-999.0,-999.0,-999,0.00,,,0.00,meteobridge,2013-11-11 05:42:00,
2013-11-10 21:43:00,-999.0,-99.9,30.00,North,-999,-999.0,-999.0,-999,0.00,,,0.00,meteobridge,2013-11-11 05:43:00,
2013-11-10 21:44:00,-999.0,-99.9,30.00,North,-999,-999.0,-999.0,-999,0.00,,,0.00,meteobridge,2013-11-11 05:44:00,
2013-11-10 21:46:00,-999.0,-99.9,30.01,North,-999,-999.0,-999.0,-999,0.00,,,0.00,meteobridge,2013-11-11 05:46:00,
2013-11-10 21:47:00,-999.0,-99.9,30.01,North,-999,-999.0,-999.0,-999,0.00,,,0.00,meteobridge,2013-11-11 05:47:00,
2013-11-10 21:48:00,-999.0,-99.9,30.01,North,-999,-999.0,-999.0,-999,0.00,,,0.00,meteobridge,2013-11-11 05:48:00,
2013-11-10 21:49:00,-999.0,-99.9,30.01,North,-999,-999.0,-999.0,-999,0.00,,,0.00,meteobridge,2013-11-11 05:49:00,
2013-11-10 21:51:00,-999.0,-99.9,30.01,North,-999,-999.0,-999.0,-999,0.00,,,0.00,meteobridge,2013-11-11 05:51:00,
2013-11-10 21:53:00,-999.0,-99.9,30.01,North,-999,-999.0,-999.0,-999,0.00,,,0.00,meteobridge,2013-11-11 05:53:00,
2013-11-10 21:54:00,-999.0,-99.9,30.01,North,-999,-999.0,-999.0,-999,0.00,,,0.00,meteobridge,2013-11-11 05:54:00,
2013-11-10 21:55:00,-999.0,-99.9,30.01,North,-999,-999.0,-999.0,-999,0.00,,,0.00,meteobridge,2013-11-11 05:55:00,
2013-11-10 21:56:00,-999.0,-99.9,30.01,North,-999,-999.0,-999.0,-999,0.00,,,0.00,meteobridge,2013-11-11 05:56:00,
2013-11-10 21:57:00,-999.0,-99.9,30.00,North,-999,-999.0,-999.0,-999,0.00,,,0.00,meteobridge,2013-11-11 05:57:00,
2013-11-10 21:58:00,-999.0,-99.9,30.01,North,-999,-999.0,-999.0,-999,0.00,,,0.00,meteobridge,2013-11-11 05:58:00,
2013-11-10 22:00:00,32.4,-0.4,30.00,West,270,0.0,0.0,24,0.00,,,0.00,meteobridge,2013-11-11 06:00:00,
2013-11-10 22:02:00,32.4,-0.4,30.01,West,270,0.0,0.0,24,0.00,,,0.00,meteobridge,2013-11-11 06:02:00,
2013-11-10 22:04:00,32.4,-0.4,30.01,West,270,0.0,0.0,24,0.00,,,0.00,meteobridge,2013-11-11 06:04:00,
2013-11-10 22:05:00,32.4,-0.4,30.01,West,270,0.0,0.0,24,0.00,,,0.00,meteobridge,2013-11-11 06:05:00,
2013-11-10 22:06:00,32.4,-0.4,30.01,West,270,0.0,0.0,24,0.00,,,0.00,meteobridge,2013-11-11 06:06:00,
2013-11-10 22:07:00,32.4,-0.4,30.01,West,270,0.0,0.0,24,0.00,,,0.00,meteobridge,2013-11-11 06:07:00,
2013-11-10 22:08:00,32.4,-0.4,30.01,West,270,0.0,0.0,24,0.00,,,0.00,meteobridge,2013-11-11 06:08:00,
2013-11-10 22:09:00,32.4,-0.4,30.01,West,270,0.0,-999.0,24,0.00,,,0.00,meteobridge,2013-11-11 06:09:00,
2013-11-10 22:10:00,32.4,-0.4,30.01,West,270,0.0,-999.0,24,0.00,,,0.00,meteobridge,2013-11-11 06:10:00,
2013-11-10 22:11:00,32.4,-0.4,30.01,West,270,0.0,-999.0,24,0.00,,,0.00,meteobridge,2013-11-11 06:11:00,
2013-11-10 22:14:00,-999.0,-99.9,30.01,North,-999,-999.0,-999.0,-999,0.00,,,0.00,meteobridge,2013-11-11 06:14:00,
2013-11-10 22:15:00,-999.0,-99.9,30.01,North,-999,-999.0,-999.0,-999,0.00,,,0.00,meteobridge,2013-11-11 06:15:00,
2013-11-10 22:16:00,-999.0,-99.9,30.00,North,-999,-999.0,-999.0,-999,0.00,,,0.00,meteobridge,2013-11-11 06:16:00,
2013-11-10 22:17:00,-999.0,-99.9,30.01,North,-999,-999.0,-999.0,-999,0.00,,,0.00,meteobridge,2013-11-11 06:17:00,
2013-11-10 22:20:00,-999.0,-99.9,30.01,North,-999,-999.0,-999.0,-999,0.00,,,0.00,meteobridge,2013-11-11 06:20:00,
2013-11-10 22:21:00,-999.0,-99.9,30.01,North,-999,-999.0,-999.0,-999,0.00,,,0.00,meteobridge,2013-11-11 06:21:00,
2013-11-10 22:22:00,-999.0,-99.9,30.01,North,-999,-999.0,-999.0,-999,0.00,,,0.00,meteobridge,2013-11-11 06:22:00,
2013-11-10 22:23:00,-999.0,-99.9,30.01,North,-999,-999.0,-999.0,-999,0.00,,,0.00,meteobridge,2013-11-11 06:23:00,
2013-11-10 22:24:00,43.0,8.6,30.01,West,270,3.8,3.8,24,0.00,,,0.00,meteobridge,2013-11-11 06:24:00,
2013-11-10 22:28:00,43.0,8.6,30.01,West,270,3.8,3.8,24,0.00,,,0.00,meteobridge,2013-11-11 06:28:00,
2013-11-10 22:29:00,43.0,8.6,30.01,West,270,3.8,3.8,24,0.00,,,0.00,meteobridge,2013-11-11 06:29:00,
2013-11-10 22:30:00,43.0,8.6,30.01,West,270,3.8,3.8,24,0.00,,,0.00,meteobridge,2013-11-11 06:30:00,
2013-11-10 22:33:00,43.0,8.6,30.01,West,270,3.8,-999.0,24,0.00,,,0.00,meteobridge,2013-11-11 06:33:00,
2013-11-10 22:34:00,43.0,8.6,30.01,West,270,3.8,-999.0,24,0.00,,,0.00,meteobridge,2013-11-11 06:34:00,
2013-11-10 22:36:00,-999.0,-99.9,30.00,North,-999,-999.0,-999.0,-999,0.00,,,0.00,meteobridge,2013-11-11 06:36:00,
2013-11-10 22:39:00,-999.0,-99.9,30.01,North,-999,-999.0,-999.0,-999,0.00,,,0.00,meteobridge,2013-11-11 06:39:00,
2013-11-10 22:40:00,-999.0,-99.9,30.01,North,-999,-999.0,-999.0,-999,0.00,,,0.00,meteobridge,2013-11-11 06:40:00,
2013-11-10 22:41:00,-999.0,-99.9,30.01,North,-999,-999.0,-999.0,-999,0.00,,,0.00,meteobridge,2013-11-11 06:41:00,
2013-11-10 22:42:00,-999.0,-99.9,30.01,North,-999,-999.0,-999.0,-999,0.00,,,0.00,meteobridge,2013-11-11 06:42:00,
2013-11-10 22:44:00,-999.0,-99.9,30.01,North,-999,-999.0,-999.0,-999,0.00,,,0.00,meteobridge,2013-11-11 06:44:00,
2013-11-10 22:45:00,42.8,9.3,30.01,West,270,4.5,4.5,25,0.00,,,0.00,meteobridge,2013-11-11 06:45:00,
2013-11-10 22:48:00,42.8,9.3,30.00,West,270,4.5,4.5,25,0.00,,,0.00,meteobridge,2013-11-11 06:48:00,
2013-11-10 22:49:00,42.8,9.3,30.01,West,270,4.5,4.5,25,0.00,,,0.00,meteobridge,2013-11-11 06:49:00,
2013-11-10 22:50:00,42.8,9.3,30.01,West,270,4.5,4.5,25,0.00,,,0.00,meteobridge,2013-11-11 06:50:00,
2013-11-10 22:52:00,42.8,9.3,30.01,West,270,4.5,4.5,25,0.00,,,0.00,meteobridge,2013-11-11 06:52:00,
2013-11-10 22:54:00,42.6,9.3,30.01,West,270,5.4,5.4,25,0.00,,,0.00,meteobridge,2013-11-11 06:54:00,
2013-11-10 22:55:00,42.6,9.3,30.01,West,270,5.4,5.4,25,0.00,,,0.00,meteobridge,2013-11-11 06:55:00,
2013-11-10 22:56:00,42.6,9.3,30.01,West,270,5.4,5.4,25,0.00,,,0.00,meteobridge,2013-11-11 06:56:00,
2013-11-10 22:59:00,42.6,9.3,30.01,West,270,5.4,5.4,25,0.00,,,0.00,meteobridge,2013-11-11 06:59:00,
2013-11-10 23:00:00,42.6,9.3,30.00,West,270,5.4,5.4,25,0.00,,,0.00,meteobridge,2013-11-11 07:00:00,
2013-11-10 23:01:00,42.6,9.3,30.00,West,270,5.4,5.4,25,0.00,,,0.00,meteobridge,2013-11-11 07:01:00,
2013-11-10 23:03:00,42.6,9.3,30.01,West,270,5.4,5.4,25,0.00,,,0.00,meteobridge,2013-11-11 07:03:00,
2013-11-10 23:04:00,42.6,9.3,30.01,West,270,5.4,-999.0,25,0.00,,,0.00,meteobridge,2013-11-11 07:04:00,
2013-11-10 23:05:00,42.6,9.3,30.01,West,270,5.4,-999.0,25,0.00,,,0.00,meteobridge,2013-11-11 07:05:00,
2013-11-10 23:07:00,-999.0,-99.9,30.01,North,-999,-999.0,-999.0,-999,0.00,,,0.00,meteobridge,2013-11-11 07:07:00,
2013-11-10 23:08:00,-999.0,-99.9,30.01,North,-999,-999.0,-999.0,-999,0.00,,,0.00,meteobridge,2013-11-11 07:08:00,
2013-11-10 23:10:00,-999.0,-99.9,30.01,North,-999,-999.0,-999.0,-999,0.00,,,0.00,meteobridge,2013-11-11 07:10:00,
2013-11-10 23:11:00,-999.0,-99.9,30.01,North,-999,-999.0,-999.0,-999,0.00,,,0.00,meteobridge,2013-11-11 07:11:00,
2013-11-10 23:12:00,-999.0,-99.9,30.01,North,-999,-999.0,-999.0,-999,0.00,,,0.00,meteobridge,2013-11-11 07:12:00,
2013-11-10 23:14:00,-999.0,-99.9,30.01,North,-999,-999.0,-999.0,-999,0.00,,,0.00,meteobridge,2013-11-11 07:14:00,
2013-11-10 23:15:00,-999.0,-99.9,30.01,North,-999,-999.0,-999.0,-999,0.00,,,0.00,meteobridge,2013-11-11 07:15:00,
2013-11-10 23:16:00,-999.0,-99.9,30.01,North,-999,-999.0,-999.0,-999,0.00,,,0.00,meteobridge,2013-11-11 07:16:00,
2013-11-10 23:18:00,-999.0,-99.9,30.01,North,-999,-999.0,-999.0,-999,0.00,,,0.00,meteobridge,2013-11-11 07:18:00,
2013-11-10 23:20:00,-999.0,-99.9,30.01,North,-999,-999.0,-999.0,-999,0.00,,,0.00,meteobridge,2013-11-11 07:20:00,
2013-11-10 23:22:00,-999.0,-99.9,30.01,North,-999,-999.0,-999.0,-999,0.00,,,0.00,meteobridge,2013-11-11 07:22:00,
2013-11-10 23:24:00,-999.0,-99.9,30.01,North,-999,-999.0,-999.0,-999,0.00,,,0.00,meteobridge,2013-11-11 07:24:00,
2013-11-10 23:25:00,-999.0,-99.9,30.01,North,-999,-999.0,-999.0,-999,0.00,,,0.00,meteobridge,2013-11-11 07:25:00,
2013-11-10 23:26:00,-999.0,-99.9,30.01,North,-999,-999.0,-999.0,-999,0.00,,,0.00,meteobridge,2013-11-11 07:26:00,
2013-11-10 23:29:00,-999.0,-99.9,30.01,North,-999,-999.0,-999.0,-999,0.00,,,0.00,meteobridge,2013-11-11 07:29:00,
2013-11-10 23:30:00,-999.0,-99.9,30.01,North,-999,-999.0,-999.0,-999,0.00,,,0.00,meteobridge,2013-11-11 07:30:00,
2013-11-10 23:31:00,-999.0,-99.9,30.01,North,-999,-999.0,-999.0,-999,0.00,,,0.00,meteobridge,2013-11-11 07:31:00,
2013-11-10 23:35:00,-999.0,-99.9,30.00,North,-999,-999.0,-999.0,-999,0.00,,,0.00,meteobridge,2013-11-11 07:35:00,
2013-11-10 23:36:00,-999.0,-99.9,30.01,North,-999,-999.0,-999.0,-999,0.00,,,0.00,meteobridge,2013-11-11 07:36:00,
2013-11-10 23:37:00,-999.0,-99.9,30.01,North,-999,-999.0,-999.0,-999,0.00,,,0.00,meteobridge,2013-11-11 07:37:00,
2013-11-10 23:41:00,-999.0,-99.9,30.01,North,-999,-999.0,-999.0,-999,0.00,,,0.00,meteobridge,2013-11-11 07:41:00,
2013-11-10 23:42:00,-999.0,-99.9,30.01,North,-999,-999.0,-999.0,-999,0.00,,,0.00,meteobridge,2013-11-11 07:42:00,
2013-11-10 23:43:00,-999.0,-99.9,30.01,North,-999,-999.0,-999.0,-999,0.00,,,0.00,meteobridge,2013-11-11 07:43:00,
2013-11-10 23:44:00,-999.0,-99.9,30.01,North,-999,-999.0,-999.0,-999,0.00,,,0.00,meteobridge,2013-11-11 07:44:00,
2013-11-10 23:46:00,-999.0,-99.9,30.01,North,-999,-999.0,-999.0,-999,0.00,,,0.00,meteobridge,2013-11-11 07:46:00,
2013-11-10 23:48:00,-999.0,-99.9,30.01,North,-999,-999.0,-999.0,-999,0.00,,,0.00,meteobridge,2013-11-11 07:48:00,
2013-11-10 23:49:00,-999.0,-99.9,30.01,North,-999,-999.0,-999.0,-999,0.00,,,0.00,meteobridge,2013-11-11 07:49:00,
2013-11-10 23:50:00,-999.0,-99.9,30.01,North,-999,-999.0,-999.0,-999,0.00,,,0.00,meteobridge,2013-11-11 07:50:00,
2013-11-10 23:51:00,-999.0,-99.9,30.01,North,-999,-999.0,-999.0,-999,0.00,,,0.00,meteobridge,2013-11-11 07:51:00,
2013-11-10 23:53:00,-999.0,-99.9,30.01,North,-999,-999.0,-999.0,-999,0.00,,,0.00,meteobridge,2013-11-11 07:53:00,
2013-11-10 23:55:00,-999.0,-99.9,30.01,North,-999,-999.0,-999.0,-999,0.00,,,0.00,meteobridge,2013-11-11 07:55:00,
2013-11-10 23:56:00,-999.0,-99.9,30.01,North,-999,-999.0,-999.0,-999,0.00,,,0.00,meteobridge,2013-11-11 07:56:00,
2013-11-10 23:57:00,-999.0,-99.9,30.01,North,-999,-999.0,-999.0,-999,0.00,,,0.00,meteobridge,2013-11-11 07:57:00,
2013-11-10 23:58:00,-999.0,-99.9,30.01,North,-999,-999.0,-999.0,-999,0.00,,,0.00,meteobridge,2013-11-11 07:58:00,